Observation data for Comanche Springs on 05/24/2020      Previous  Date  Next       Current Mesonet Observations  Soil Data  Daily Summary Page  Observations in Plain Language
KCO3 240500Z 02012KT 18/16 A2982 RMK A01 T01760160  RH  091%=      5-min Rain = 0
KCO3 240501Z 02012KT 18/16 A2982 RMK A01 T01770159  RH  089%=      5-min Rain = 0
KCO3 240502Z 03012KT 18/16 A2981 RMK A01 T01780157  RH  087%=      5-min Rain = 0
KCO3 240503Z 03013G18KT 18/16 A2981 RMK A01 T01810155  RH  085%=      5-min Rain = 0
KCO3 240504Z 03014KT 18/15 A298 RMK A01 T01830154  RH  083%=      5-min Rain = 0
KCO3 240505Z 03014KT 18/16 A2979 RMK A01 T01840155  RH  083%=      5-min Rain = 0
KCO3 240506Z 04014KT 19/15 A2978 RMK A01 T01850154  RH  082%=      5-min Rain = 0
KCO3 240507Z 04015KT 19/15 A2978 RMK A01 T01850154  RH  082%=      5-min Rain = 0
KCO3 240508Z 04013KT 19/15 A2977 RMK A01 T01860152  RH  081%=      5-min Rain = 0
KCO3 240509Z 04014G19KT 19/15 A2977 RMK A01 T01870150  RH  079%=      5-min Rain = 0
KCO3 240510Z 04015KT 19/15 A2976 RMK A01 T01900148  RH  077%=      5-min Rain = 0
KCO3 240511Z 05012G18KT 19/15 A2975 RMK A01 T01910149  RH  076%=      5-min Rain = 0
KCO3 240512Z 05013KT 19/15 A2975 RMK A01 T01920150  RH  076%=      5-min Rain = 0
KCO3 240513Z 05013G20KT 19/15 A2974 RMK A01 T01920150  RH  077%=      5-min Rain = 0
KCO3 240514Z 05015G21KT 19/15 A2973 RMK A01 T01910150  RH  077%=      5-min Rain = 0
KCO3 240515Z 05014G20KT 19/15 A2972 RMK A01 T01910147  RH  075%=      5-min Rain = 0
KCO3 240516Z 05013G20KT 19/15 A2972 RMK A01 T01930146  RH  074%=      5-min Rain = 0
KCO3 240517Z 04015G23KT 19/15 A2971 RMK A01 T01940145  RH  073%=      5-min Rain = 0
KCO3 240518Z 04017G26KT 20/14 A2971 RMK A01 T01970141  RH  070%=      5-min Rain = 0
KCO3 240519Z 05019G28KT 20/14 A297 RMK A01 T02000139  RH  068%=      5-min Rain = 0
KCO3 240520Z 05020G30KT 20/14 A297 RMK A01 T02030138  RH  066%=      5-min Rain = 0
KCO3 240521Z 04021G30KT 20/14 A297 RMK A01 T02040139  RH  066%=      5-min Rain = 0
KCO3 240522Z 04019G28KT 21/14 A297 RMK A01 T02050139  RH  066%=      5-min Rain = 0
KCO3 240523Z 04018G27KT 21/14 A297 RMK A01 T02050136  RH  065%=      5-min Rain = 0
KCO3 240524Z 05018G27KT 21/13 A297 RMK A01 T02070134  RH  063%=      5-min Rain = 0
KCO3 240525Z 05019G25KT 21/14 A297 RMK A01 T02090135  RH  063%=      5-min Rain = 0
KCO3 240526Z 06024G36KT 21/13 A297 RMK A01 T02100133  RH  061%=      5-min Rain = 0
KCO3 240527Z 06025G32KT 21/13 A297 RMK A01 T02130132  RH  060%=      5-min Rain = 0
KCO3 240528Z 06017G26KT 21/14 A297 RMK A01 T02140137  RH  062%=      5-min Rain = 0
KCO3 240529Z 06016G21KT 21/14 A297 RMK A01 T02100143  RH  065%=      5-min Rain = 0
KCO3 240530Z 06013G20KT 21/15 A297 RMK A01 T02050145  RH  068%=      5-min Rain = 0
KCO3 240531Z 06015G22KT 20/15 A297 RMK A01 T02020146  RH  070%=      5-min Rain = 0
KCO3 240532Z 06013G18KT 20/15 A297 RMK A01 T02000148  RH  072%=      5-min Rain = 0
KCO3 240533Z 06015G20KT 20/15 A297 RMK A01 T01980147  RH  072%=      5-min Rain = 0
KCO3 240534Z 06015G22KT 20/15 A297 RMK A01 T01970145  RH  072%=      5-min Rain = 0
KCO3 240535Z 06014G23KT 20/15 A2971 RMK A01 T01980145  RH  072%=      5-min Rain = 0
KCO3 240536Z 06014KT 20/15 A2971 RMK A01 T01980145  RH  071%=      5-min Rain = 0
KCO3 240537Z 06014G20KT 20/14 A2971 RMK A01 T01990142  RH  070%=      5-min Rain = 0
KCO3 240538Z 06013G20KT 20/14 A2972 RMK A01 T02010140  RH  068%=      5-min Rain = 0
KCO3 240539Z 06012G18KT 20/14 A2972 RMK A01 T02030140  RH  067%=      5-min Rain = 0
KCO3 240540Z 07015G21KT 21/14 A2972 RMK A01 T02050137  RH  065%=      5-min Rain = 0
KCO3 240541Z 07014G21KT 21/14 A2973 RMK A01 T02070138  RH  065%=      5-min Rain = 0
KCO3 240542Z 09011G16KT 21/14 A2974 RMK A01 T02080139  RH  065%=      5-min Rain = 0
KCO3 240543Z 13010KT 21/14 A2975 RMK A01 T02080140  RH  065%=      5-min Rain = 0
KCO3 240544Z 17012KT 21/14 A2976 RMK A01 T02060142  RH  067%=      5-min Rain = 0
KCO3 240545Z 17013G18KT 20/15 A2976 RMK A01 T02020145  RH  070%=      5-min Rain = 0
KCO3 240546Z 16016G23KT 20/15 A2977 RMK A01 T01980147  RH  072%=      5-min Rain = 0
KCO3 240547Z 16013G20KT 20/15 A2977 RMK A01 T01950149  RH  074%=      5-min Rain = 0
KCO3 240548Z 15017G24KT 19/15 A2977 RMK A01 T01930149  RH  075%=      5-min Rain = 0
KCO3 240549Z 15015G22KT 19/15 A2977 RMK A01 T01930150  RH  076%=      5-min Rain = 0
KCO3 240550Z 15017G26KT 19/15 A2978 RMK A01 T01930148  RH  075%=      5-min Rain = 0
KCO3 240551Z 13015G22KT 19/15 A2977 RMK A01 T01940146  RH  073%=      5-min Rain = 0
KCO3 240552Z 12014KT 20/15 A2977 RMK A01 T01960145  RH  072%=      5-min Rain = 0
KCO3 240553Z 11015G21KT 20/14 A2977 RMK A01 T01980144  RH  071%=      5-min Rain = 0
KCO3 240554Z 11013G18KT 20/14 A2977 RMK A01 T02000142  RH  069%=      5-min Rain = 0
KCO3 240555Z 11012KT 20/14 A2977 RMK A01 T02010144  RH  070%=      5-min Rain = 0
KCO3 240556Z 13012KT 20/14 A2978 RMK A01 T02010143  RH  069%=      5-min Rain = 0
KCO3 240557Z 14012KT 20/15 A2978 RMK A01 T02010145  RH  070%=      5-min Rain = 0
KCO3 240558Z 14014G19KT 20/15 A2978 RMK A01 T02000145  RH  070%=      5-min Rain = 0
KCO3 240559Z 13013G19KT 20/14 A2979 RMK A01 T02000143  RH  070%=      5-min Rain = 0
KCO3 240600Z 14013KT 20/14 A2979 RMK A01 T02000142  RH  069%=      5-min Rain = 0
KCO3 240601Z 14012G20KT 20/14 A2979 RMK A01 T02010143  RH  069%=      5-min Rain = 0
KCO3 240602Z 13014G20KT 20/14 A2979 RMK A01 T02020140  RH  067%=      5-min Rain = 0
KCO3 240603Z 13009KT 20/14 A2979 RMK A01 T02030141  RH  067%=      5-min Rain = 0
KCO3 240604Z 12009KT 20/14 A2978 RMK A01 T02040141  RH  067%=      5-min Rain = 0
KCO3 240605Z 11009G15KT 20/14 A2978 RMK A01 T02030142  RH  068%=      5-min Rain = 0
KCO3 240606Z 11009G15KT 20/14 A2978 RMK A01 T02030143  RH  068%=      5-min Rain = 0
KCO3 240607Z 11011G16KT 20/14 A2977 RMK A01 T02020143  RH  069%=      5-min Rain = 0
KCO3 240608Z 10013KT 20/14 A2977 RMK A01 T02010143  RH  069%=      5-min Rain = 0
KCO3 240609Z 11013G18KT 20/14 A2977 RMK A01 T02010144  RH  070%=      5-min Rain = 0
KCO3 240610Z 11012G17KT 20/14 A2977 RMK A01 T02000144  RH  070%=      5-min Rain = 0
KCO3 240611Z 11011KT 20/15 A2978 RMK A01 T01990145  RH  071%=      5-min Rain = 0
KCO3 240612Z 10009KT 20/15 A2978 RMK A01 T01980146  RH  072%=      5-min Rain = 0
KCO3 240613Z 11008KT 20/15 A2978 RMK A01 T01970147  RH  073%=      5-min Rain = 0
KCO3 240614Z 11007KT 20/15 A2978 RMK A01 T01960147  RH  073%=      5-min Rain = 0
KCO3 240615Z 11007KT 20/15 A2978 RMK A01 T01960147  RH  073%=      5-min Rain = 0
KCO3 240616Z 11009KT 20/15 A2978 RMK A01 T01950147  RH  074%=      5-min Rain = 0
KCO3 240617Z 12008KT 20/15 A2977 RMK A01 T01950145  RH  073%=      5-min Rain = 0
KCO3 240618Z 13010KT 20/15 A2977 RMK A01 T01960145  RH  072%=      5-min Rain = 0
KCO3 240619Z 12009KT 20/14 A2977 RMK A01 T01970143  RH  071%=      5-min Rain = 0
KCO3 240620Z 11008G13KT 20/14 A2977 RMK A01 T01980144  RH  071%=      5-min Rain = 0
KCO3 240621Z 11007KT 20/14 A2977 RMK A01 T01980143  RH  071%=      5-min Rain = 0
KCO3 240622Z 10010KT 20/14 A2977 RMK A01 T01980142  RH  070%=      5-min Rain = 0
KCO3 240623Z 10009KT 20/14 A2977 RMK A01 T01990142  RH  069%=      5-min Rain = 0
KCO3 240624Z 10007KT 20/14 A2977 RMK A01 T02000143  RH  070%=      5-min Rain = 0
KCO3 240625Z 09005G10KT 20/14 A2977 RMK A01 T02000143  RH  070%=      5-min Rain = 0
KCO3 240626Z 10008KT 20/14 A2977 RMK A01 T02000143  RH  070%=      5-min Rain = 0
KCO3 240627Z 11007KT 20/14 A2977 RMK A01 T02000142  RH  069%=      5-min Rain = 0
KCO3 240628Z 11008KT 20/14 A2977 RMK A01 T02000141  RH  069%=      5-min Rain = 0
KCO3 240629Z 11007KT 20/14 A2977 RMK A01 T02010141  RH  068%=      5-min Rain = 0
KCO3 240630Z 11008KT 20/14 A2977 RMK A01 T02010141  RH  068%=      5-min Rain = 0
KCO3 240631Z 12007KT 20/14 A2977 RMK A01 T02020140  RH  068%=      5-min Rain = 0
KCO3 240632Z 11007KT 20/14 A2977 RMK A01 T02020140  RH  067%=      5-min Rain = 0
KCO3 240633Z 10007KT 20/14 A2977 RMK A01 T02020141  RH  068%=      5-min Rain = 0
KCO3 240634Z 11006G11KT 20/14 A2977 RMK A01 T02020140  RH  067%=      5-min Rain = 0
KCO3 240635Z 09007KT 20/14 A2977 RMK A01 T02020140  RH  067%=      5-min Rain = 0
KCO3 240636Z 09007G12KT 20/14 A2977 RMK A01 T02030140  RH  067%=      5-min Rain = 0
KCO3 240637Z 09007KT 20/14 A2977 RMK A01 T02030142  RH  068%=      5-min Rain = 0
KCO3 240638Z 09007KT 20/14 A2977 RMK A01 T02030141  RH  067%=      5-min Rain = 0
KCO3 240639Z 10007KT 20/14 A2977 RMK A01 T02030140  RH  067%=      5-min Rain = 0
KCO3 240640Z 10005KT 20/14 A2977 RMK A01 T02030140  RH  067%=      5-min Rain = 0
KCO3 240641Z 10006KT 20/14 A2977 RMK A01 T02030141  RH  067%=      5-min Rain = 0
KCO3 240642Z 10006KT 20/14 A2977 RMK A01 T02030141  RH  067%=      5-min Rain = 0
KCO3 240643Z 11006KT 20/14 A2977 RMK A01 T02030140  RH  067%=      5-min Rain = 0
KCO3 240644Z 11005KT 20/14 A2977 RMK A01 T02030140  RH  067%=      5-min Rain = 0
KCO3 240645Z 11005KT 20/14 A2977 RMK A01 T02020141  RH  068%=      5-min Rain = 0
KCO3 240646Z 12005KT 20/14 A2977 RMK A01 T02010141  RH  068%=      5-min Rain = 0
KCO3 240647Z 10004KT 20/14 A2977 RMK A01 T02010141  RH  068%=      5-min Rain = 0
KCO3 240648Z 10005KT 20/14 A2977 RMK A01 T02000141  RH  069%=      5-min Rain = 0
KCO3 240649Z 08005KT 20/14 A2977 RMK A01 T02000141  RH  069%=      5-min Rain = 0
KCO3 240650Z 07006KT 20/14 A2977 RMK A01 T02000142  RH  069%=      5-min Rain = 0
KCO3 240651Z 06005KT 20/14 A2977 RMK A01 T02000143  RH  069%=      5-min Rain = 0
KCO3 240652Z 07006KT 20/14 A2977 RMK A01 T02000142  RH  069%=      5-min Rain = 0
KCO3 240653Z 08006KT 20/14 A2977 RMK A01 T01990143  RH  070%=      5-min Rain = 0
KCO3 240654Z 10005KT 20/14 A2977 RMK A01 T01990144  RH  070%=      5-min Rain = 0
KCO3 240655Z 11006KT 20/14 A2977 RMK A01 T01990143  RH  070%=      5-min Rain = 0
KCO3 240656Z 12007KT 20/14 A2977 RMK A01 T01990142  RH  070%=      5-min Rain = 0
KCO3 240657Z 12007KT 20/14 A2977 RMK A01 T01990142  RH  070%=      5-min Rain = 0
KCO3 240658Z 12006KT 20/14 A2977 RMK A01 T01980142  RH  070%=      5-min Rain = 0
KCO3 240659Z 12006KT 20/14 A2977 RMK A01 T01980142  RH  070%=      5-min Rain = 0
KCO3 240700Z 12006KT 20/14 A2977 RMK A01 T01980142  RH  070%=      5-min Rain = 0
KCO3 240701Z 12006KT 20/14 A2977 RMK A01 T01970141  RH  070%=      5-min Rain = 0
KCO3 240702Z 12007KT 20/14 A2977 RMK A01 T01970141  RH  070%=      5-min Rain = 0
KCO3 240703Z 13006KT 20/14 A2977 RMK A01 T01970142  RH  070%=      5-min Rain = 0
KCO3 240704Z 14005KT 20/14 A2977 RMK A01 T01970144  RH  071%=      5-min Rain = 0
KCO3 240705Z 14004KT 20/14 A2977 RMK A01 T01960144  RH  072%=      5-min Rain = 0
KCO3 240706Z 13002KT 20/14 A2977 RMK A01 T01950143  RH  072%=      5-min Rain = 0
KCO3 240707Z 12001KT 20/14 A2977 RMK A01 T01950143  RH  072%=      5-min Rain = 0
KCO3 240708Z 09001KT 20/14 A2977 RMK A01 T01950143  RH  072%=      5-min Rain = 0
KCO3 240709Z 12001KT 19/14 A2977 RMK A01 T01940144  RH  073%=      5-min Rain = 0
KCO3 240710Z 13001KT 19/15 A2977 RMK A01 T01940145  RH  073%=      5-min Rain = 0
KCO3 240711Z 13002KT 19/15 A2977 RMK A01 T01930146  RH  074%=      5-min Rain = 0
KCO3 240712Z 12001KT 19/15 A2977 RMK A01 T01930147  RH  075%=      5-min Rain = 0
KCO3 240713Z 09001KT 19/15 A2977 RMK A01 T01920146  RH  074%=      5-min Rain = 0
KCO3 240714Z 07002KT 19/15 A2977 RMK A01 T01920145  RH  074%=      5-min Rain = 0
KCO3 240715Z 08002KT 19/14 A2977 RMK A01 T01920144  RH  074%=      5-min Rain = 0
KCO3 240716Z 07002KT 19/14 A2977 RMK A01 T01920144  RH  074%=      5-min Rain = 0
KCO3 240717Z 04002KT 19/14 A2977 RMK A01 T01920144  RH  074%=      5-min Rain = 0
KCO3 240718Z 02005KT 19/15 A2977 RMK A01 T01920145  RH  074%=      5-min Rain = 0
KCO3 240719Z 01005KT 19/15 A2978 RMK A01 T01910146  RH  075%=      5-min Rain = 0
KCO3 240720Z 03004KT 19/15 A2978 RMK A01 T01910147  RH  076%=      5-min Rain = 0
KCO3 240721Z 10004KT 19/15 A2977 RMK A01 T01900146  RH  075%=      5-min Rain = 0
KCO3 240722Z 11003KT 19/14 A2977 RMK A01 T01900144  RH  074%=      5-min Rain = 0
KCO3 240723Z 11002KT 19/15 A2977 RMK A01 T01920145  RH  074%=      5-min Rain = 0
KCO3 240724Z 08003KT 19/14 A2977 RMK A01 T01920144  RH  074%=      5-min Rain = 0
KCO3 240725Z 04003KT 19/15 A2977 RMK A01 T01920146  RH  074%=      5-min Rain = 0
KCO3 240726Z 03004KT 19/15 A2977 RMK A01 T01920148  RH  076%=      5-min Rain = 0
KCO3 240727Z 04003KT 19/15 A2977 RMK A01 T01910147  RH  076%=      5-min Rain = 0
KCO3 240728Z 08002KT 19/15 A2977 RMK A01 T01900146  RH  076%=      5-min Rain = 0
KCO3 240729Z 11001KT 19/15 A2976 RMK A01 T01900147  RH  076%=      5-min Rain = 0
KCO3 240730Z 14001KT 19/15 A2977 RMK A01 T01890149  RH  077%=      5-min Rain = 0
KCO3 240731Z 18003KT 19/15 A2977 RMK A01 T01880149  RH  078%=      5-min Rain = 0
KCO3 240732Z 18003KT 19/15 A2977 RMK A01 T01850148  RH  079%=      5-min Rain = 0
KCO3 240733Z 18003KT 18/15 A2977 RMK A01 T01830148  RH  080%=      5-min Rain = 0
KCO3 240734Z 18003KT 18/15 A2977 RMK A01 T01810148  RH  081%=      5-min Rain = 0
KCO3 240735Z 18003KT 18/15 A2977 RMK A01 T01810148  RH  081%=      5-min Rain = 0
KCO3 240736Z 17003KT 18/15 A2977 RMK A01 T01800147  RH  081%=      5-min Rain = 0
KCO3 240737Z 15003KT 18/15 A2977 RMK A01 T01800147  RH  081%=      5-min Rain = 0
KCO3 240738Z 14003KT 18/15 A2978 RMK A01 T01800148  RH  082%=      5-min Rain = 0
KCO3 240739Z 14005KT 18/15 A2978 RMK A01 T01790148  RH  082%=      5-min Rain = 0
KCO3 240740Z 15009KT 18/15 A2979 RMK A01 T01790149  RH  083%=      5-min Rain = 0
KCO3 240741Z 15008KT 18/15 A2979 RMK A01 T01800148  RH  082%=      5-min Rain = 0
KCO3 240742Z 15007KT 18/15 A2979 RMK A01 T01800148  RH  081%=      5-min Rain = 0
KCO3 240743Z 15006KT 18/15 A2979 RMK A01 T01800148  RH  081%=      5-min Rain = 0
KCO3 240744Z 15004KT 18/15 A2979 RMK A01 T01810148  RH  081%=      5-min Rain = 0
KCO3 240745Z 14004KT 18/15 A2979 RMK A01 T01810147  RH  081%=      5-min Rain = 0
KCO3 240746Z 14003KT 18/15 A2979 RMK A01 T01820147  RH  080%=      5-min Rain = 0
KCO3 240747Z 15004KT 18/15 A2979 RMK A01 T01820148  RH  080%=      5-min Rain = 0
KCO3 240748Z 15005KT 18/15 A2979 RMK A01 T01830148  RH  080%=      5-min Rain = 0
KCO3 240749Z 16005KT 18/15 A2979 RMK A01 T01820149  RH  081%=      5-min Rain = 0
KCO3 240750Z 15003KT 18/15 A2979 RMK A01 T01820149  RH  081%=      5-min Rain = 0
KCO3 240751Z 15002KT 18/15 A2979 RMK A01 T01820149  RH  081%=      5-min Rain = 0
KCO3 240752Z 16003KT 18/15 A2979 RMK A01 T01820149  RH  081%=      5-min Rain = 0
KCO3 240753Z 17003KT 18/15 A298 RMK A01 T01810149  RH  081%=      5-min Rain = 0
KCO3 240754Z 17004KT 18/15 A298 RMK A01 T01810149  RH  081%=      5-min Rain = 0
KCO3 240755Z 18003KT 18/15 A2979 RMK A01 T01810149  RH  082%=      5-min Rain = 0
KCO3 240756Z 17004KT 18/15 A2979 RMK A01 T01800149  RH  082%=      5-min Rain = 0
KCO3 240757Z 15005KT 18/15 A298 RMK A01 T01800150  RH  083%=      5-min Rain = 0
KCO3 240758Z 15003KT 18/15 A2979 RMK A01 T01800151  RH  083%=      5-min Rain = 0
KCO3 240759Z 16004KT 18/15 A2979 RMK A01 T01800152  RH  083%=      5-min Rain = 0
KCO3 240800Z 16008KT 18/15 A298 RMK A01 T01800152  RH  084%=      5-min Rain = 0
KCO3 240801Z 16005KT 18/15 A298 RMK A01 T01800153  RH  084%=      5-min Rain = 0
KCO3 240802Z 16006KT 18/15 A298 RMK A01 T01800153  RH  084%=      5-min Rain = 0
KCO3 240803Z 15007KT 18/15 A298 RMK A01 T01800154  RH  085%=      5-min Rain = 0
KCO3 240804Z 16006KT 18/15 A298 RMK A01 T01800154  RH  085%=      5-min Rain = 0
KCO3 240805Z 15008KT 18/15 A298 RMK A01 T01800154  RH  085%=      5-min Rain = 0
KCO3 240806Z 15009KT 18/15 A2981 RMK A01 T01800154  RH  085%=      5-min Rain = 0
KCO3 240807Z 14007KT 18/15 A298 RMK A01 T01800153  RH  084%=      5-min Rain = 0
KCO3 240808Z 15008KT 18/15 A298 RMK A01 T01810154  RH  084%=      5-min Rain = 0
KCO3 240809Z 15008KT 18/15 A2981 RMK A01 T01810154  RH  084%=      5-min Rain = 0
KCO3 240810Z 14006KT 18/15 A2981 RMK A01 T01810154  RH  085%=      5-min Rain = 0
KCO3 240811Z 15006KT 18/15 A2981 RMK A01 T01800154  RH  085%=      5-min Rain = 0
KCO3 240812Z 14004KT 18/15 A2981 RMK A01 T01800154  RH  085%=      5-min Rain = 0
KCO3 240813Z 14005KT 18/16 A2981 RMK A01 T01800155  RH  085%=      5-min Rain = 0
KCO3 240814Z 14003KT 18/16 A298 RMK A01 T01800155  RH  085%=      5-min Rain = 0
KCO3 240815Z 15003KT 18/16 A298 RMK A01 T01790155  RH  085%=      5-min Rain = 0
KCO3 240816Z 17004KT 18/15 A2981 RMK A01 T01790154  RH  085%=      5-min Rain = 0
KCO3 240817Z 16003KT 18/15 A2981 RMK A01 T01790154  RH  086%=      5-min Rain = 0
KCO3 240818Z 14002KT 18/15 A298 RMK A01 T01780154  RH  086%=      5-min Rain = 0
KCO3 240819Z 08001KT 18/15 A298 RMK A01 T01780154  RH  086%=      5-min Rain = 0
KCO3 240820Z 13002KT 18/15 A298 RMK A01 T01780154  RH  086%=      5-min Rain = 0
KCO3 240821Z 13002KT 18/15 A298 RMK A01 T01780154  RH  086%=      5-min Rain = 0
KCO3 240822Z 15002KT 18/15 A2981 RMK A01 T01780154  RH  086%=      5-min Rain = 0
KCO3 240823Z 17002KT 18/16 A2981 RMK A01 T01780155  RH  086%=      5-min Rain = 0
KCO3 240824Z 18002KT 18/16 A2981 RMK A01 T01770155  RH  087%=      5-min Rain = 0
KCO3 240825Z 22002KT 18/15 A2981 RMK A01 T01760154  RH  087%=      5-min Rain = 0
KCO3 240826Z 24001KT 18/15 A298 RMK A01 T01750154  RH  087%=      5-min Rain = 0
KCO3 240827Z 21002KT 18/15 A2981 RMK A01 T01750154  RH  088%=      5-min Rain = 0
KCO3 240828Z 22001KT 17/15 A2981 RMK A01 T01740154  RH  088%=      5-min Rain = 0
KCO3 240829Z 25002KT 17/15 A2981 RMK A01 T01730154  RH  088%=      5-min Rain = 0
KCO3 240830Z 24003KT 17/15 A2981 RMK A01 T01730154  RH  088%=      5-min Rain = 0
KCO3 240831Z 24003KT 17/15 A2981 RMK A01 T01720154  RH  089%=      5-min Rain = 0
KCO3 240832Z 24003KT 17/15 A2981 RMK A01 T01720154  RH  089%=      5-min Rain = 0
KCO3 240833Z 25003KT 17/15 A2981 RMK A01 T01720154  RH  089%=      5-min Rain = 0
KCO3 240834Z 26004KT 17/15 A2981 RMK A01 T01710154  RH  089%=      5-min Rain = 0
KCO3 240835Z 25004KT 17/15 A2981 RMK A01 T01710154  RH  090%=      5-min Rain = 0
KCO3 240836Z 25004KT 17/15 A2981 RMK A01 T01710154  RH  090%=      5-min Rain = 0
KCO3 240837Z 25004KT 17/15 A2981 RMK A01 T01710154  RH  090%=      5-min Rain = 0
KCO3 240838Z 27003KT 17/15 A298 RMK A01 T01710154  RH  090%=      5-min Rain = 0
KCO3 240839Z 28003KT 17/15 A298 RMK A01 T01710153  RH  090%=      5-min Rain = 0
KCO3 240840Z 27003KT 17/15 A298 RMK A01 T01710153  RH  089%=      5-min Rain = 0
KCO3 240841Z 28003KT 17/15 A298 RMK A01 T01710153  RH  089%=      5-min Rain = 0
KCO3 240842Z 27003KT 17/15 A298 RMK A01 T01710153  RH  089%=      5-min Rain = 0
KCO3 240843Z 27003KT 17/15 A298 RMK A01 T01710153  RH  089%=      5-min Rain = 0
KCO3 240844Z 27003KT 17/15 A298 RMK A01 T01710153  RH  089%=      5-min Rain = 0
KCO3 240845Z 29003KT 17/15 A298 RMK A01 T01710153  RH  089%=      5-min Rain = 0
KCO3 240846Z 29003KT 17/15 A298 RMK A01 T01710154  RH  089%=      5-min Rain = 0
KCO3 240847Z 29003KT 17/15 A298 RMK A01 T01720154  RH  090%=      5-min Rain = 0
KCO3 240848Z 28003KT 17/16 A298 RMK A01 T01720155  RH  090%=      5-min Rain = 0
KCO3 240849Z 28003KT 17/16 A298 RMK A01 T01720155  RH  089%=      5-min Rain = 0
KCO3 240850Z 28003KT 17/16 A298 RMK A01 T01720155  RH  089%=      5-min Rain = 0
KCO3 240851Z 28003KT 17/15 A298 RMK A01 T01720154  RH  089%=      5-min Rain = 0
KCO3 240852Z 28002KT 17/15 A298 RMK A01 T01720154  RH  090%=      5-min Rain = 0
KCO3 240853Z 26002KT 17/16 A298 RMK A01 T01710155  RH  090%=      5-min Rain = 0
KCO3 240854Z 25003KT 17/15 A298 RMK A01 T01710154  RH  090%=      5-min Rain = 0
KCO3 240855Z 25002KT 17/15 A298 RMK A01 T01710154  RH  090%=      5-min Rain = 0
KCO3 240856Z 24002KT 17/15 A298 RMK A01 T01710154  RH  090%=      5-min Rain = 0
KCO3 240857Z 24002KT 17/15 A298 RMK A01 T01700153  RH  090%=      5-min Rain = 0
KCO3 240858Z 25002KT 17/15 A298 RMK A01 T01690153  RH  090%=      5-min Rain = 0
KCO3 240859Z 25002KT 17/15 A298 RMK A01 T01690153  RH  090%=      5-min Rain = 0
KCO3 240900Z 23001KT 17/15 A298 RMK A01 T01690153  RH  090%=      5-min Rain = 0
KCO3 240901Z 23000KT 17/15 A298 RMK A01 T01690153  RH  090%=      5-min Rain = 0
KCO3 240902Z 00000KT 17/15 A298 RMK A01 T01700154  RH  090%=      5-min Rain = 0
KCO3 240903Z 21000KT 17/16 A298 RMK A01 T01700156  RH  091%=      5-min Rain = 0
KCO3 240904Z 20001KT 17/16 A298 RMK A01 T01710156  RH  091%=      5-min Rain = 0
KCO3 240905Z 17000KT 17/16 A298 RMK A01 T01710156  RH  091%=      5-min Rain = 0
KCO3 240906Z 17001KT 17/16 A298 RMK A01 T01700155  RH  090%=      5-min Rain = 0
KCO3 240907Z 16001KT 17/15 A298 RMK A01 T01700154  RH  090%=      5-min Rain = 0
KCO3 240908Z 17001KT 17/15 A298 RMK A01 T01700153  RH  090%=      5-min Rain = 0
KCO3 240909Z 18001KT 17/16 A298 RMK A01 T01710156  RH  091%=      5-min Rain = 0
KCO3 240910Z 19001KT 17/16 A298 RMK A01 T01700155  RH  091%=      5-min Rain = 0
KCO3 240911Z 19001KT 17/15 A298 RMK A01 T01690154  RH  091%=      5-min Rain = 0
KCO3 240912Z 19001KT 17/15 A298 RMK A01 T01680153  RH  091%=      5-min Rain = 0
KCO3 240913Z 18001KT 17/15 A298 RMK A01 T01680153  RH  091%=      5-min Rain = 0
KCO3 240914Z 18001KT 17/15 A298 RMK A01 T01670153  RH  091%=      5-min Rain = 0
KCO3 240915Z 20002KT 17/15 A298 RMK A01 T01670154  RH  092%=      5-min Rain = 0
KCO3 240916Z 20002KT 17/15 A298 RMK A01 T01660153  RH  092%=      5-min Rain = 0
KCO3 240917Z 20002KT 17/15 A298 RMK A01 T01650153  RH  093%=      5-min Rain = 0
KCO3 240918Z 19001KT 17/15 A298 RMK A01 T01650153  RH  093%=      5-min Rain = 0
KCO3 240919Z 17001KT 16/15 A298 RMK A01 T01640153  RH  093%=      5-min Rain = 0
KCO3 240920Z 16002KT 16/15 A298 RMK A01 T01640153  RH  093%=      5-min Rain = 0
KCO3 240921Z 17002KT 16/15 A2981 RMK A01 T01640153  RH  094%=      5-min Rain = 0
KCO3 240922Z 18002KT 16/15 A2981 RMK A01 T01640154  RH  094%=      5-min Rain = 0
KCO3 240923Z 19002KT 16/15 A2981 RMK A01 T01640154  RH  094%=      5-min Rain = 0
KCO3 240924Z 17002KT 16/15 A2981 RMK A01 T01620152  RH  093%=      5-min Rain = 0
KCO3 240925Z 15003KT 16/15 A2981 RMK A01 T01620152  RH  094%=      5-min Rain = 0
KCO3 240926Z 14003KT 16/15 A2981 RMK A01 T01620153  RH  095%=      5-min Rain = 0
KCO3 240927Z 14002KT 16/15 A2981 RMK A01 T01620153  RH  094%=      5-min Rain = 0
KCO3 240928Z 12002KT 16/15 A2981 RMK A01 T01630153  RH  094%=      5-min Rain = 0
KCO3 240929Z 10002KT 16/15 A2981 RMK A01 T01640154  RH  094%=      5-min Rain = 0
KCO3 240930Z 09003KT 17/16 A2982 RMK A01 T01650155  RH  094%=      5-min Rain = 0
KCO3 240931Z 08004KT 17/16 A2982 RMK A01 T01670156  RH  093%=      5-min Rain = 0
KCO3 240932Z 07005KT 17/16 A2982 RMK A01 T01680156  RH  092%=      5-min Rain = 0
KCO3 240933Z 07005KT 17/16 A2982 RMK A01 T01690156  RH  092%=      5-min Rain = 0
KCO3 240934Z 06005KT 17/16 A2982 RMK A01 T01690155  RH  092%=      5-min Rain = 0
KCO3 240935Z 05004KT 17/16 A2982 RMK A01 T01690155  RH  091%=      5-min Rain = 0
KCO3 240936Z 05004KT 17/16 A2982 RMK A01 T01690155  RH  091%=      5-min Rain = 0
KCO3 240937Z 05005KT 17/16 A2982 RMK A01 T01680155  RH  092%=      5-min Rain = 0
KCO3 240938Z 05004KT 17/16 A2982 RMK A01 T01680155  RH  092%=      5-min Rain = 0
KCO3 240939Z 05005KT 17/16 A2982 RMK A01 T01680155  RH  092%=      5-min Rain = 0
KCO3 240940Z 05004KT 17/16 A2982 RMK A01 T01680155  RH  092%=      5-min Rain = 0
KCO3 240941Z 06003KT 17/16 A2982 RMK A01 T01680155  RH  092%=      5-min Rain = 0
KCO3 240942Z 08002KT 17/16 A2982 RMK A01 T01680155  RH  092%=      5-min Rain = 0
KCO3 240943Z 09002KT 17/16 A2982 RMK A01 T01680155  RH  092%=      5-min Rain = 0
KCO3 240944Z 11001KT 17/16 A2982 RMK A01 T01680156  RH  093%=      5-min Rain = 0
KCO3 240945Z 09002KT 17/16 A2982 RMK A01 T01680156  RH  093%=      5-min Rain = 0
KCO3 240946Z 09002KT 17/16 A2981 RMK A01 T01680156  RH  093%=      5-min Rain = 0
KCO3 240947Z 13002KT 17/16 A2981 RMK A01 T01680156  RH  093%=      5-min Rain = 0
KCO3 240948Z 15002KT 17/16 A2981 RMK A01 T01670155  RH  093%=      5-min Rain = 0
KCO3 240949Z 14002KT 17/16 A2981 RMK A01 T01660155  RH  093%=      5-min Rain = 0
KCO3 240950Z 17002KT 17/15 A2981 RMK A01 T01650154  RH  093%=      5-min Rain = 0
KCO3 240951Z 17001KT 16/15 A2981 RMK A01 T01640154  RH  093%=      5-min Rain = 0
KCO3 240952Z 19002KT 16/15 A2981 RMK A01 T01640154  RH  094%=      5-min Rain = 0
KCO3 240953Z 20002KT 16/15 A2981 RMK A01 T01630154  RH  094%=      5-min Rain = 0
KCO3 240954Z 19002KT 16/15 A2981 RMK A01 T01620153  RH  094%=      5-min Rain = 0
KCO3 240955Z 16002KT 16/15 A298 RMK A01 T01620152  RH  094%=      5-min Rain = 0
KCO3 240956Z 16001KT 16/15 A298 RMK A01 T01610152  RH  095%=      5-min Rain = 0
KCO3 240957Z 17002KT 16/15 A298 RMK A01 T01610153  RH  095%=      5-min Rain = 0
KCO3 240958Z 17002KT 16/15 A298 RMK A01 T01610153  RH  095%=      5-min Rain = 0
KCO3 240959Z 17002KT 16/15 A298 RMK A01 T01610153  RH  095%=      5-min Rain = 0
KCO3 241000Z 16001KT 16/15 A298 RMK A01 T01610153  RH  095%=      5-min Rain = 0
KCO3 241001Z 15001KT 16/15 A298 RMK A01 T01610153  RH  095%=      5-min Rain = 0
KCO3 241002Z 15001KT 16/15 A298 RMK A01 T01610153  RH  095%=      5-min Rain = 0
KCO3 241003Z 12001KT 16/15 A298 RMK A01 T01610154  RH  096%=      5-min Rain = 0
KCO3 241004Z 11001KT 16/15 A298 RMK A01 T01610154  RH  096%=      5-min Rain = 0
KCO3 241005Z 10001KT 16/15 A298 RMK A01 T01610154  RH  096%=      5-min Rain = 0
KCO3 241006Z 09002KT 16/15 A298 RMK A01 T01610154  RH  096%=      5-min Rain = 0
KCO3 241007Z 07002KT 16/16 A298 RMK A01 T01620155  RH  096%=      5-min Rain = 0
KCO3 241008Z 07002KT 16/16 A298 RMK A01 T01630155  RH  095%=      5-min Rain = 0
KCO3 241009Z 07003KT 16/16 A298 RMK A01 T01640155  RH  094%=      5-min Rain = 0
KCO3 241010Z 06004KT 17/15 A298 RMK A01 T01650154  RH  093%=      5-min Rain = 0
KCO3 241011Z 06005KT 17/15 A298 RMK A01 T01660154  RH  093%=      5-min Rain = 0
KCO3 241012Z 05005KT 17/15 A298 RMK A01 T01660154  RH  092%=      5-min Rain = 0
KCO3 241013Z 05005KT 17/15 A298 RMK A01 T01670154  RH  092%=      5-min Rain = 0
KCO3 241014Z 05005KT 17/16 A298 RMK A01 T01670155  RH  092%=      5-min Rain = 0
KCO3 241015Z 05006KT 17/16 A298 RMK A01 T01670155  RH  093%=      5-min Rain = 0
KCO3 241016Z 05005KT 17/16 A298 RMK A01 T01660155  RH  093%=      5-min Rain = 0
KCO3 241017Z 05005KT 17/16 A298 RMK A01 T01660155  RH  094%=      5-min Rain = 0
KCO3 241018Z 05005KT 17/16 A298 RMK A01 T01650155  RH  094%=      5-min Rain = 0
KCO3 241019Z 04005KT 17/16 A298 RMK A01 T01650155  RH  094%=      5-min Rain = 0
KCO3 241020Z 05004KT 17/16 A298 RMK A01 T01650155  RH  094%=      5-min Rain = 0
KCO3 241021Z 05004KT 17/16 A298 RMK A01 T01650155  RH  094%=      5-min Rain = 0
KCO3 241022Z 05003KT 17/15 A298 RMK A01 T01650154  RH  093%=      5-min Rain = 0
KCO3 241023Z 05003KT 17/15 A298 RMK A01 T01650154  RH  093%=      5-min Rain = 0
KCO3 241024Z 05002KT 17/15 A298 RMK A01 T01650154  RH  093%=      5-min Rain = 0
KCO3 241025Z 09000KT 17/15 A298 RMK A01 T01650154  RH  093%=      5-min Rain = 0
KCO3 241026Z 09000KT 17/15 A298 RMK A01 T01650154  RH  093%=      5-min Rain = 0
KCO3 241027Z 00000KT 17/15 A298 RMK A01 T01650154  RH  093%=      5-min Rain = 0
KCO3 241028Z 00000KT 16/15 A298 RMK A01 T01640153  RH  093%=      5-min Rain = 0
KCO3 241029Z 00000KT 16/15 A298 RMK A01 T01640154  RH  094%=      5-min Rain = 0
KCO3 241030Z 00000KT 16/15 A298 RMK A01 T01630153  RH  094%=      5-min Rain = 0
KCO3 241031Z 00000KT 16/15 A298 RMK A01 T01620152  RH  094%=      5-min Rain = 0
KCO3 241032Z 00000KT 16/15 A2981 RMK A01 T01610151  RH  094%=      5-min Rain = 0
KCO3 241033Z 23001KT 16/15 A2981 RMK A01 T01600151  RH  094%=      5-min Rain = 0
KCO3 241034Z 24002KT 16/15 A2981 RMK A01 T01590151  RH  095%=      5-min Rain = 0
KCO3 241035Z 24001KT 16/15 A2981 RMK A01 T01590152  RH  095%=      5-min Rain = 0
KCO3 241036Z 24001KT 16/15 A2981 RMK A01 T01580152  RH  096%=      5-min Rain = 0
KCO3 241037Z 25002KT 16/15 A2981 RMK A01 T01580151  RH  096%=      5-min Rain = 0
KCO3 241038Z 24001KT 16/15 A2981 RMK A01 T01580151  RH  096%=      5-min Rain = 0
KCO3 241039Z 25001KT 16/15 A2981 RMK A01 T01570151  RH  096%=      5-min Rain = 0
KCO3 241040Z 24001KT 16/15 A2981 RMK A01 T01570151  RH  096%=      5-min Rain = 0
KCO3 241041Z 23001KT 16/15 A2981 RMK A01 T01570151  RH  096%=      5-min Rain = 0
KCO3 241042Z 21001KT 16/15 A2981 RMK A01 T01570151  RH  096%=      5-min Rain = 0
KCO3 241043Z 23001KT 16/15 A2981 RMK A01 T01570151  RH  096%=      5-min Rain = 0
KCO3 241044Z 23000KT 16/15 A2981 RMK A01 T01560151  RH  097%=      5-min Rain = 0
KCO3 241045Z 00000KT 16/15 A2981 RMK A01 T01560151  RH  097%=      5-min Rain = 0
KCO3 241046Z 00000KT 16/15 A2981 RMK A01 T01560152  RH  097%=      5-min Rain = 0
KCO3 241047Z 00000KT 16/15 A2981 RMK A01 T01560152  RH  097%=      5-min Rain = 0
KCO3 241048Z 00000KT 16/15 A2981 RMK A01 T01570152  RH  097%=      5-min Rain = 0
KCO3 241049Z 00000KT 16/15 A2981 RMK A01 T01570153  RH  097%=      5-min Rain = 0
KCO3 241050Z 01000KT 16/15 A2981 RMK A01 T01580154  RH  097%=      5-min Rain = 0
KCO3 241051Z 05001KT 16/15 A2981 RMK A01 T01580154  RH  097%=      5-min Rain = 0
KCO3 241052Z 06001KT 16/15 A2981 RMK A01 T01580154  RH  097%=      5-min Rain = 0
KCO3 241053Z 07001KT 16/15 A2981 RMK A01 T01580154  RH  097%=      5-min Rain = 0
KCO3 241054Z 06001KT 16/15 A2981 RMK A01 T01580154  RH  097%=      5-min Rain = 0
KCO3 241055Z 06001KT 16/15 A2981 RMK A01 T01580154  RH  097%=      5-min Rain = 0
KCO3 241056Z 07001KT 16/15 A2981 RMK A01 T01580154  RH  097%=      5-min Rain = 0
KCO3 241057Z 09001KT 16/16 A2981 RMK A01 T01590155  RH  097%=      5-min Rain = 0
KCO3 241058Z 09001KT 16/16 A2981 RMK A01 T01590155  RH  097%=      5-min Rain = 0
KCO3 241059Z 14001KT 16/15 A2981 RMK A01 T01590154  RH  097%=      5-min Rain = 0
KCO3 241100Z 13001KT 16/15 A2981 RMK A01 T01570152  RH  097%=      5-min Rain = 0
KCO3 241101Z 12001KT 16/15 A2981 RMK A01 T01560151  RH  097%=      5-min Rain = 0
KCO3 241102Z 13002KT 16/15 A2981 RMK A01 T01560152  RH  097%=      5-min Rain = 0
KCO3 241103Z 12002KT 16/15 A2981 RMK A01 T01570153  RH  097%=      5-min Rain = 0
KCO3 241104Z 14002KT 16/15 A2982 RMK A01 T01570153  RH  098%=      5-min Rain = 0
KCO3 241105Z 15003KT 16/15 A2982 RMK A01 T01570152  RH  097%=      5-min Rain = 0
KCO3 241106Z 15003KT 16/15 A2981 RMK A01 T01550150  RH  097%=      5-min Rain = 0
KCO3 241107Z 15003KT 15/15 A2981 RMK A01 T01540149  RH  097%=      5-min Rain = 0
KCO3 241108Z 15003KT 15/15 A2981 RMK A01 T01530148  RH  097%=      5-min Rain = 0
KCO3 241109Z 16003KT 15/15 A2981 RMK A01 T01530148  RH  097%=      5-min Rain = 0
KCO3 241110Z 16004KT 15/15 A2981 RMK A01 T01530148  RH  097%=      5-min Rain = 0
KCO3 241111Z 16003KT 15/15 A2981 RMK A01 T01520148  RH  097%=      5-min Rain = 0
KCO3 241112Z 16003KT 15/15 A2981 RMK A01 T01520149  RH  098%=      5-min Rain = 0
KCO3 241113Z 17003KT 15/15 A2981 RMK A01 T01520149  RH  098%=      5-min Rain = 0
KCO3 241114Z 17003KT 15/15 A2981 RMK A01 T01520149  RH  098%=      5-min Rain = 0
KCO3 241115Z 17003KT 15/15 A2981 RMK A01 T01520149  RH  098%=      5-min Rain = 0
KCO3 241116Z 16003KT 15/15 A2981 RMK A01 T01520149  RH  098%=      5-min Rain = 0
KCO3 241117Z 16003KT 15/15 A2982 RMK A01 T01520149  RH  098%=      5-min Rain = 0
KCO3 241118Z 16003KT 15/15 A2982 RMK A01 T01520149  RH  098%=      5-min Rain = 0
KCO3 241119Z 16003KT 15/15 A2982 RMK A01 T01520149  RH  098%=      5-min Rain = 0
KCO3 241120Z 16002KT 15/15 A2982 RMK A01 T01520149  RH  098%=      5-min Rain = 0
KCO3 241121Z 15002KT 15/15 A2982 RMK A01 T01520149  RH  098%=      5-min Rain = 0
KCO3 241122Z 13002KT 15/15 A2982 RMK A01 T01520150  RH  098%=      5-min Rain = 0
KCO3 241123Z 13002KT 15/15 A2982 RMK A01 T01530150  RH  098%=      5-min Rain = 0
KCO3 241124Z 13002KT 15/15 A2982 RMK A01 T01540151  RH  098%=      5-min Rain = 0
KCO3 241125Z 12002KT 15/15 A2982 RMK A01 T01540152  RH  098%=      5-min Rain = 0
KCO3 241126Z 12003KT 16/15 A2982 RMK A01 T01550153  RH  099%=      5-min Rain = 0
KCO3 241127Z 12003KT 16/15 A2982 RMK A01 T01550153  RH  098%=      5-min Rain = 0
KCO3 241128Z 13004KT 16/15 A2982 RMK A01 T01550153  RH  098%=      5-min Rain = 0
KCO3 241129Z 12004KT 16/15 A2982 RMK A01 T01560153  RH  098%=      5-min Rain = 0
KCO3 241130Z 12004KT 16/15 A2982 RMK A01 T01560154  RH  098%=      5-min Rain = 0
KCO3 241131Z 12004KT 16/15 A2982 RMK A01 T01570154  RH  098%=      5-min Rain = 0
KCO3 241132Z 12004KT 16/15 A2982 RMK A01 T01580154  RH  098%=      5-min Rain = 0
KCO3 241133Z 12004KT 16/15 A2982 RMK A01 T01590154  RH  097%=      5-min Rain = 0
KCO3 241134Z 12004KT 16/15 A2982 RMK A01 T01600154  RH  096%=      5-min Rain = 0
KCO3 241135Z 12004KT 16/15 A2982 RMK A01 T01610154  RH  095%=      5-min Rain = 0
KCO3 241136Z 12005KT 16/15 A2982 RMK A01 T01620153  RH  094%=      5-min Rain = 0
KCO3 241137Z 13005KT 16/15 A2982 RMK A01 T01630153  RH  094%=      5-min Rain = 0
KCO3 241138Z 13005KT 16/15 A2982 RMK A01 T01640153  RH  093%=      5-min Rain = 0
KCO3 241139Z 13005KT 17/15 A2982 RMK A01 T01650152  RH  092%=      5-min Rain = 0
KCO3 241140Z 13005KT 17/15 A2982 RMK A01 T01660152  RH  092%=      5-min Rain = 0
KCO3 241141Z 13005KT 17/15 A2982 RMK A01 T01660152  RH  091%=      5-min Rain = 0
KCO3 241142Z 13005KT 17/15 A2982 RMK A01 T01670152  RH  091%=      5-min Rain = 0
KCO3 241143Z 13005KT 17/15 A2982 RMK A01 T01670152  RH  091%=      5-min Rain = 0
KCO3 241144Z 13005KT 17/15 A2982 RMK A01 T01670152  RH  091%=      5-min Rain = 0
KCO3 241145Z 13004KT 17/15 A2982 RMK A01 T01670153  RH  091%=      5-min Rain = 0
KCO3 241146Z 14004KT 17/15 A2982 RMK A01 T01670153  RH  092%=      5-min Rain = 0
KCO3 241147Z 14004KT 17/15 A2982 RMK A01 T01660153  RH  092%=      5-min Rain = 0
KCO3 241148Z 14004KT 17/15 A2982 RMK A01 T01650152  RH  092%=      5-min Rain = 0
KCO3 241149Z 14005KT 17/15 A2982 RMK A01 T01650152  RH  092%=      5-min Rain = 0
KCO3 241150Z 14004KT 17/15 A2982 RMK A01 T01650152  RH  092%=      5-min Rain = 0
KCO3 241151Z 14004KT 17/15 A2982 RMK A01 T01650152  RH  092%=      5-min Rain = 0
KCO3 241152Z 15004KT 17/15 A2982 RMK A01 T01650152  RH  092%=      5-min Rain = 0
KCO3 241153Z 15004KT 17/15 A2982 RMK A01 T01650153  RH  092%=      5-min Rain = 0
KCO3 241154Z 15004KT 17/15 A2982 RMK A01 T01660153  RH  092%=      5-min Rain = 0
KCO3 241155Z 15004KT 17/15 A2982 RMK A01 T01650153  RH  092%=      5-min Rain = 0
KCO3 241156Z 15003KT 17/15 A2982 RMK A01 T01650153  RH  093%=      5-min Rain = 0
KCO3 241157Z 15003KT 17/15 A2982 RMK A01 T01650153  RH  093%=      5-min Rain = 0
KCO3 241158Z 15003KT 17/15 A2982 RMK A01 T01650153  RH  093%=      5-min Rain = 0
KCO3 241159Z 15003KT 17/15 A2982 RMK A01 T01650154  RH  093%=      5-min Rain = 0
KCO3 241200Z 15003KT 16/15 A2982 RMK A01 T01640154  RH  093%=      5-min Rain = 0
KCO3 241201Z 15004KT 16/15 A2982 RMK A01 T01640154  RH  094%=      5-min Rain = 0
KCO3 241202Z 14004KT 16/15 A2982 RMK A01 T01640154  RH  094%=      5-min Rain = 0
KCO3 241203Z 14003KT 16/15 A2982 RMK A01 T01640154  RH  094%=      5-min Rain = 0
KCO3 241204Z 13003KT 16/15 A2981 RMK A01 T01640154  RH  094%=      5-min Rain = 0
KCO3 241205Z 13003KT 16/15 A2982 RMK A01 T01640153  RH  093%=      5-min Rain = 0
KCO3 241206Z 13003KT 16/15 A2982 RMK A01 T01640153  RH  093%=      5-min Rain = 0
KCO3 241207Z 13003KT 17/15 A2982 RMK A01 T01650154  RH  093%=      5-min Rain = 0
KCO3 241208Z 13003KT 17/16 A2982 RMK A01 T01650155  RH  094%=      5-min Rain = 0
KCO3 241209Z 14003KT 17/16 A2982 RMK A01 T01650155  RH  094%=      5-min Rain = 0
KCO3 241210Z 14003KT 17/16 A2982 RMK A01 T01650155  RH  094%=      5-min Rain = 0
KCO3 241211Z 13003KT 17/16 A2982 RMK A01 T01650155  RH  094%=      5-min Rain = 0
KCO3 241212Z 13003KT 17/16 A2982 RMK A01 T01660155  RH  094%=      5-min Rain = 0
KCO3 241213Z 13003KT 17/16 A2982 RMK A01 T01660155  RH  093%=      5-min Rain = 0
KCO3 241214Z 13003KT 17/16 A2982 RMK A01 T01660155  RH  093%=      5-min Rain = 0
KCO3 241215Z 14004KT 17/16 A2982 RMK A01 T01660155  RH  093%=      5-min Rain = 0
KCO3 241216Z 14003KT 17/16 A2982 RMK A01 T01660155  RH  093%=      5-min Rain = 0
KCO3 241217Z 14004KT 17/16 A2982 RMK A01 T01670156  RH  093%=      5-min Rain = 0
KCO3 241218Z 15003KT 17/16 A2982 RMK A01 T01670156  RH  093%=      5-min Rain = 0
KCO3 241219Z 15003KT 17/16 A2982 RMK A01 T01670156  RH  093%=      5-min Rain = 0
KCO3 241220Z 15003KT 17/16 A2982 RMK A01 T01670156  RH  093%=      5-min Rain = 0
KCO3 241221Z 16003KT 17/16 A2982 RMK A01 T01670156  RH  093%=      5-min Rain = 0
KCO3 241222Z 15003KT 17/16 A2982 RMK A01 T01670157  RH  093%=      5-min Rain = 0
KCO3 241223Z 15002KT 17/16 A2982 RMK A01 T01670157  RH  093%=      5-min Rain = 0
KCO3 241224Z 15003KT 17/16 A2982 RMK A01 T01670157  RH  094%=      5-min Rain = 0
KCO3 241225Z 17002KT 17/16 A2982 RMK A01 T01670157  RH  094%=      5-min Rain = 0
KCO3 241226Z 17003KT 17/16 A2982 RMK A01 T01670157  RH  094%=      5-min Rain = 0
KCO3 241227Z 17003KT 17/16 A2982 RMK A01 T01670157  RH  094%=      5-min Rain = 0
KCO3 241228Z 17003KT 17/16 A2982 RMK A01 T01670157  RH  094%=      5-min Rain = 0
KCO3 241229Z 17003KT 17/16 A2982 RMK A01 T01660157  RH  094%=      5-min Rain = 0
KCO3 241230Z 18002KT 17/16 A2982 RMK A01 T01660157  RH  094%=      5-min Rain = 0
KCO3 241231Z 19002KT 17/16 A2982 RMK A01 T01670157  RH  094%=      5-min Rain = 0
KCO3 241232Z 19003KT 17/16 A2983 RMK A01 T01670157  RH  094%=      5-min Rain = 0
KCO3 241233Z 20003KT 17/16 A2983 RMK A01 T01670158  RH  094%=      5-min Rain = 0
KCO3 241234Z 20002KT 17/16 A2983 RMK A01 T01670157  RH  094%=      5-min Rain = 0
KCO3 241235Z 20002KT 17/16 A2983 RMK A01 T01670158  RH  095%=      5-min Rain = 0
KCO3 241236Z 20002KT 17/16 A2983 RMK A01 T01670158  RH  095%=      5-min Rain = 0
KCO3 241237Z 21002KT 17/16 A2983 RMK A01 T01670158  RH  095%=      5-min Rain = 0
KCO3 241238Z 21002KT 17/16 A2983 RMK A01 T01670158  RH  095%=      5-min Rain = 0
KCO3 241239Z 20001KT 17/16 A2983 RMK A01 T01670158  RH  095%=      5-min Rain = 0
KCO3 241240Z 21001KT 17/16 A2983 RMK A01 T01670159  RH  095%=      5-min Rain = 0
KCO3 241241Z 22001KT 17/16 A2983 RMK A01 T01670159  RH  095%=      5-min Rain = 0
KCO3 241242Z 21001KT 17/16 A2983 RMK A01 T01670159  RH  095%=      5-min Rain = 0
KCO3 241243Z 22002KT 17/16 A2983 RMK A01 T01680159  RH  095%=      5-min Rain = 0
KCO3 241244Z 21001KT 17/16 A2983 RMK A01 T01680159  RH  095%=      5-min Rain = 0
KCO3 241245Z 23000KT 17/16 A2983 RMK A01 T01680159  RH  094%=      5-min Rain = 0
KCO3 241246Z 21001KT 17/16 A2983 RMK A01 T01690159  RH  094%=      5-min Rain = 0
KCO3 241247Z 21001KT 17/16 A2983 RMK A01 T01700160  RH  094%=      5-min Rain = 0
KCO3 241248Z 22001KT 17/16 A2983 RMK A01 T01710162  RH  095%=      5-min Rain = 0
KCO3 241249Z 23000KT 17/16 A2983 RMK A01 T01710163  RH  095%=      5-min Rain = 0
KCO3 241250Z 00000KT 17/16 A2983 RMK A01 T01720163  RH  094%=      5-min Rain = 0
KCO3 241251Z 22000KT 17/16 A2983 RMK A01 T01730163  RH  094%=      5-min Rain = 0
KCO3 241252Z 19001KT 17/16 A2983 RMK A01 T01740162  RH  093%=      5-min Rain = 0
KCO3 241253Z 18001KT 17/16 A2983 RMK A01 T01740162  RH  092%=      5-min Rain = 0
KCO3 241254Z 20000KT 18/16 A2983 RMK A01 T01750163  RH  092%=      5-min Rain = 0
KCO3 241255Z 17001KT 18/16 A2983 RMK A01 T01770164  RH  092%=      5-min Rain = 0
KCO3 241256Z 18001KT 18/16 A2983 RMK A01 T01780164  RH  092%=      5-min Rain = 0
KCO3 241257Z 00000KT 18/16 A2983 RMK A01 T01790164  RH  091%=      5-min Rain = 0
KCO3 241258Z 17001KT 18/17 A2983 RMK A01 T01810165  RH  090%=      5-min Rain = 0
KCO3 241259Z 17001KT 18/17 A2983 RMK A01 T01820166  RH  090%=      5-min Rain = 0
KCO3 241300Z 16002KT 18/17 A2983 RMK A01 T01830167  RH  090%=      5-min Rain = 0
KCO3 241301Z 17003KT 18/17 A2983 RMK A01 T01840166  RH  090%=      5-min Rain = 0
KCO3 241302Z 17002KT 19/17 A2983 RMK A01 T01850167  RH  089%=      5-min Rain = 0
KCO3 241303Z 17003KT 19/17 A2983 RMK A01 T01850166  RH  088%=      5-min Rain = 0
KCO3 241304Z 18002KT 19/17 A2983 RMK A01 T01860167  RH  089%=      5-min Rain = 0
KCO3 241305Z 17003KT 19/17 A2983 RMK A01 T01860166  RH  088%=      5-min Rain = 0
KCO3 241306Z 17004KT 19/17 A2983 RMK A01 T01870165  RH  087%=      5-min Rain = 0
KCO3 241307Z 18005KT 19/17 A2983 RMK A01 T01870166  RH  087%=      5-min Rain = 0
KCO3 241308Z 16005KT 19/17 A2983 RMK A01 T01880165  RH  087%=      5-min Rain = 0
KCO3 241309Z 16004KT 19/17 A2983 RMK A01 T01880167  RH  088%=      5-min Rain = 0
KCO3 241310Z 16004KT 19/17 A2983 RMK A01 T01890166  RH  087%=      5-min Rain = 0
KCO3 241311Z 17004KT 19/17 A2983 RMK A01 T01890166  RH  087%=      5-min Rain = 0
KCO3 241312Z 18004KT 19/17 A2983 RMK A01 T01890167  RH  087%=      5-min Rain = 0
KCO3 241313Z 18006KT 19/17 A2983 RMK A01 T01890167  RH  087%=      5-min Rain = 0
KCO3 241314Z 17004KT 19/17 A2983 RMK A01 T01890167  RH  087%=      5-min Rain = 0
KCO3 241315Z 16004KT 19/17 A2983 RMK A01 T01890167  RH  087%=      5-min Rain = 0
KCO3 241316Z 17006KT 19/17 A2983 RMK A01 T01890167  RH  087%=      5-min Rain = 0
KCO3 241317Z 17006KT 19/17 A2983 RMK A01 T01890167  RH  087%=      5-min Rain = 0
KCO3 241318Z 16005KT 19/17 A2983 RMK A01 T01890166  RH  087%=      5-min Rain = 0
KCO3 241319Z 17004KT 19/17 A2983 RMK A01 T01890167  RH  087%=      5-min Rain = 0
KCO3 241320Z 17005KT 19/17 A2983 RMK A01 T01890167  RH  087%=      5-min Rain = 0
KCO3 241321Z 17005KT 19/17 A2983 RMK A01 T01900168  RH  087%=      5-min Rain = 0
KCO3 241322Z 18004KT 19/17 A2983 RMK A01 T01900167  RH  087%=      5-min Rain = 0
KCO3 241323Z 16004KT 19/17 A2983 RMK A01 T01900168  RH  087%=      5-min Rain = 0
KCO3 241324Z 18006KT 19/17 A2983 RMK A01 T01910168  RH  087%=      5-min Rain = 0
KCO3 241325Z 18005KT 19/17 A2983 RMK A01 T01910168  RH  087%=      5-min Rain = 0
KCO3 241326Z 16005KT 19/17 A2983 RMK A01 T01910169  RH  087%=      5-min Rain = 0
KCO3 241327Z 18005KT 19/17 A2983 RMK A01 T01920169  RH  087%=      5-min Rain = 0
KCO3 241328Z 17005KT 19/17 A2983 RMK A01 T01920168  RH  086%=      5-min Rain = 0
KCO3 241329Z 17006KT 19/17 A2984 RMK A01 T01920169  RH  087%=      5-min Rain = 0
KCO3 241330Z 17004KT 19/17 A2984 RMK A01 T01920169  RH  087%=      5-min Rain = 0
KCO3 241331Z 17006KT 19/17 A2984 RMK A01 T01930171  RH  087%=      5-min Rain = 0
KCO3 241332Z 17006KT 19/17 A2983 RMK A01 T01930170  RH  086%=      5-min Rain = 0
KCO3 241333Z 18007KT 19/17 A2983 RMK A01 T01930170  RH  086%=      5-min Rain = 0
KCO3 241334Z 17006KT 19/17 A2983 RMK A01 T01940170  RH  086%=      5-min Rain = 0
KCO3 241335Z 16007KT 19/17 A2983 RMK A01 T01940171  RH  086%=      5-min Rain = 0
KCO3 241336Z 17006KT 20/17 A2983 RMK A01 T01950171  RH  086%=      5-min Rain = 0
KCO3 241337Z 17007KT 20/17 A2983 RMK A01 T01960172  RH  086%=      5-min Rain = 0
KCO3 241338Z 17007KT 20/17 A2983 RMK A01 T01960171  RH  085%=      5-min Rain = 0
KCO3 241339Z 17007KT 20/17 A2983 RMK A01 T01960171  RH  085%=      5-min Rain = 0
KCO3 241340Z 17008KT 20/17 A2983 RMK A01 T01960171  RH  085%=      5-min Rain = 0
KCO3 241341Z 17007KT 20/17 A2983 RMK A01 T01960171  RH  085%=      5-min Rain = 0
KCO3 241342Z 17008KT 20/17 A2983 RMK A01 T01970172  RH  086%=      5-min Rain = 0
KCO3 241343Z 17008KT 20/17 A2983 RMK A01 T01980173  RH  085%=      5-min Rain = 0
KCO3 241344Z 18007KT 20/17 A2983 RMK A01 T01990173  RH  085%=      5-min Rain = 0
KCO3 241345Z 16008KT 20/17 A2983 RMK A01 T01990174  RH  085%=      5-min Rain = 0
KCO3 241346Z 16010KT 20/17 A2983 RMK A01 T02000174  RH  085%=      5-min Rain = 0
KCO3 241347Z 16008KT 20/17 A2983 RMK A01 T02010174  RH  085%=      5-min Rain = 0
KCO3 241348Z 16008KT 20/18 A2983 RMK A01 T02010175  RH  085%=      5-min Rain = 0
KCO3 241349Z 16009KT 20/17 A2983 RMK A01 T02020174  RH  084%=      5-min Rain = 0
KCO3 241350Z 16008KT 20/18 A2983 RMK A01 T02020176  RH  085%=      5-min Rain = 0.01
KCO3 241351Z 17008KT 20/18 A2983 RMK A01 T02030176  RH  084%=      5-min Rain = 0
KCO3 241352Z 16007KT 20/18 A2983 RMK A01 T02040177  RH  085%=      5-min Rain = 0
KCO3 241353Z 17008KT 21/18 A2983 RMK A01 T02050178  RH  084%=      5-min Rain = 0
KCO3 241354Z 17008KT 21/18 A2983 RMK A01 T02060178  RH  084%=      5-min Rain = 0
KCO3 241355Z 16009KT 21/18 A2983 RMK A01 T02060177  RH  084%=      5-min Rain = 0
KCO3 241356Z 16007KT 21/18 A2983 RMK A01 T02070180  RH  085%=      5-min Rain = 0
KCO3 241357Z 17008KT 21/18 A2983 RMK A01 T02080181  RH  084%=      5-min Rain = 0
KCO3 241358Z 16011G16KT 21/18 A2983 RMK A01 T02100179  RH  083%=      5-min Rain = 0
KCO3 241359Z 17011G16KT 21/18 A2983 RMK A01 T02100178  RH  082%=      5-min Rain = 0
KCO3 241400Z 17012KT 21/18 A2983 RMK A01 T02100178  RH  082%=      5-min Rain = 0
KCO3 241401Z 16009KT 21/18 A2983 RMK A01 T02100179  RH  082%=      5-min Rain = 0
KCO3 241402Z 16011KT 21/18 A2983 RMK A01 T02100178  RH  082%=      5-min Rain = 0
KCO3 241403Z 17012KT 21/18 A2983 RMK A01 T02100178  RH  082%=      5-min Rain = 0
KCO3 241404Z 17012G18KT 21/18 A2983 RMK A01 T02110178  RH  081%=      5-min Rain = 0
KCO3 241405Z 17011KT 21/18 A2983 RMK A01 T02110179  RH  082%=      5-min Rain = 0
KCO3 241406Z 18011G17KT 21/18 A2983 RMK A01 T02110180  RH  083%=      5-min Rain = 0
KCO3 241407Z 16011G16KT 21/18 A2983 RMK A01 T02120180  RH  082%=      5-min Rain = 0
KCO3 241408Z 18011KT 21/18 A2983 RMK A01 T02130180  RH  082%=      5-min Rain = 0
KCO3 241409Z 18009G14KT 21/18 A2983 RMK A01 T02130182  RH  082%=      5-min Rain = 0
KCO3 241410Z 17010KT 21/18 A2983 RMK A01 T02140181  RH  081%=      5-min Rain = 0
KCO3 241411Z 17012G19KT 21/18 A2983 RMK A01 T02140180  RH  081%=      5-min Rain = 0
KCO3 241412Z 18010G15KT 21/18 A2983 RMK A01 T02140181  RH  081%=      5-min Rain = 0
KCO3 241413Z 16010KT 22/18 A2983 RMK A01 T02150181  RH  081%=      5-min Rain = 0
KCO3 241414Z 16011G16KT 22/18 A2983 RMK A01 T02160181  RH  081%=      5-min Rain = 0
KCO3 241415Z 15012G17KT 22/18 A2983 RMK A01 T02160181  RH  080%=      5-min Rain = 0
KCO3 241416Z 15010KT 22/18 A2983 RMK A01 T02160183  RH  081%=      5-min Rain = 0
KCO3 241417Z 16011G16KT 22/18 A2983 RMK A01 T02180184  RH  081%=      5-min Rain = 0
KCO3 241418Z 17010KT 22/18 A2983 RMK A01 T02190183  RH  080%=      5-min Rain = 0
KCO3 241419Z 17009KT 22/18 A2983 RMK A01 T02190183  RH  080%=      5-min Rain = 0
KCO3 241420Z 16010G17KT 22/19 A2983 RMK A01 T02200185  RH  081%=      5-min Rain = 0
KCO3 241421Z 16015G20KT 22/18 A2983 RMK A01 T02210183  RH  079%=      5-min Rain = 0
KCO3 241422Z 16014KT 22/18 A2983 RMK A01 T02210182  RH  079%=      5-min Rain = 0
KCO3 241423Z 17012G18KT 22/18 A2983 RMK A01 T02210182  RH  079%=      5-min Rain = 0
KCO3 241424Z 16014G19KT 22/18 A2983 RMK A01 T02210184  RH  079%=      5-min Rain = 0
KCO3 241425Z 16013G19KT 22/18 A2982 RMK A01 T02220184  RH  079%=      5-min Rain = 0
KCO3 241426Z 17015G20KT 22/18 A2982 RMK A01 T02230184  RH  079%=      5-min Rain = 0
KCO3 241427Z 16013KT 22/18 A2982 RMK A01 T02230184  RH  078%=      5-min Rain = 0
KCO3 241428Z 16014G20KT 22/18 A2982 RMK A01 T02230184  RH  078%=      5-min Rain = 0
KCO3 241429Z 16014G20KT 22/18 A2982 RMK A01 T02240184  RH  078%=      5-min Rain = 0
KCO3 241430Z 16015G20KT 22/18 A2982 RMK A01 T02240184  RH  078%=      5-min Rain = 0
KCO3 241431Z 17012G19KT 23/18 A2982 RMK A01 T02250183  RH  077%=      5-min Rain = 0
KCO3 241432Z 16013KT 23/19 A2982 RMK A01 T02250185  RH  078%=      5-min Rain = 0
KCO3 241433Z 16012KT 23/19 A2982 RMK A01 T02260185  RH  078%=      5-min Rain = 0
KCO3 241434Z 16014KT 23/19 A2982 RMK A01 T02270185  RH  077%=      5-min Rain = 0
KCO3 241435Z 16014G20KT 23/18 A2982 RMK A01 T02270184  RH  077%=      5-min Rain = 0
KCO3 241436Z 16015G21KT 23/19 A2982 RMK A01 T02270185  RH  077%=      5-min Rain = 0
KCO3 241437Z 16016KT 23/19 A2981 RMK A01 T02270185  RH  077%=      5-min Rain = 0
KCO3 241438Z 17012KT 23/19 A2981 RMK A01 T02270185  RH  077%=      5-min Rain = 0
KCO3 241439Z 16010G22KT 23/19 A2981 RMK A01 T02290189  RH  078%=      5-min Rain = 0
KCO3 241440Z 17014G22KT 23/19 A2981 RMK A01 T02310188  RH  077%=      5-min Rain = 0
KCO3 241441Z 16013G18KT 23/19 A2981 RMK A01 T02320186  RH  075%=      5-min Rain = 0
KCO3 241442Z 15010KT 23/19 A2981 RMK A01 T02320187  RH  076%=      5-min Rain = 0
KCO3 241443Z 15011G16KT 23/19 A2981 RMK A01 T02330189  RH  076%=      5-min Rain = 0
KCO3 241444Z 16014G22KT 24/19 A2981 RMK A01 T02350187  RH  074%=      5-min Rain = 0
KCO3 241445Z 15015KT 24/19 A2981 RMK A01 T02350187  RH  075%=      5-min Rain = 0
KCO3 241446Z 16011G18KT 23/19 A2982 RMK A01 T02340187  RH  075%=      5-min Rain = 0
KCO3 241447Z 17012G19KT 24/19 A2982 RMK A01 T02350189  RH  075%=      5-min Rain = 0
KCO3 241448Z 17012G17KT 24/19 A2982 RMK A01 T02360187  RH  074%=      5-min Rain = 0
KCO3 241449Z 16008KT 24/19 A2982 RMK A01 T02360188  RH  074%=      5-min Rain = 0
KCO3 241450Z 17007KT 24/19 A2982 RMK A01 T02370188  RH  074%=      5-min Rain = 0
KCO3 241451Z 18007G14KT 24/19 A2982 RMK A01 T02390190  RH  074%=      5-min Rain = 0
KCO3 241452Z 17010G17KT 24/19 A2982 RMK A01 T02400190  RH  073%=      5-min Rain = 0
KCO3 241453Z 17011G19KT 24/19 A2982 RMK A01 T02400185  RH  071%=      5-min Rain = 0
KCO3 241454Z 17010G15KT 24/18 A2983 RMK A01 T02390184  RH  071%=      5-min Rain = 0
KCO3 241455Z 17012G17KT 24/19 A2983 RMK A01 T02390185  RH  072%=      5-min Rain = 0
KCO3 241456Z 17013KT 24/18 A2983 RMK A01 T02390183  RH  071%=      5-min Rain = 0
KCO3 241457Z 15009KT 24/18 A2983 RMK A01 T02380184  RH  071%=      5-min Rain = 0
KCO3 241458Z 16008KT 24/19 A2983 RMK A01 T02390188  RH  073%=      5-min Rain = 0
KCO3 241459Z 17009G15KT 24/19 A2983 RMK A01 T02420186  RH  071%=      5-min Rain = 0
KCO3 241500Z 17007KT 24/19 A2983 RMK A01 T02430188  RH  071%=      5-min Rain = 0
KCO3 241501Z 18007G12KT 24/19 A2983 RMK A01 T02440188  RH  071%=      5-min Rain = 0
KCO3 241502Z 18014G19KT 25/18 A2983 RMK A01 T02450183  RH  068%=      5-min Rain = 0
KCO3 241503Z 17014KT 25/18 A2983 RMK A01 T02450180  RH  067%=      5-min Rain = 0
KCO3 241504Z 17012G19KT 24/18 A2983 RMK A01 T02440182  RH  068%=      5-min Rain = 0
KCO3 241505Z 16009G14KT 24/18 A2983 RMK A01 T02440180  RH  068%=      5-min Rain = 0
KCO3 241506Z 17012KT 24/18 A2983 RMK A01 T02440182  RH  068%=      5-min Rain = 0
KCO3 241507Z 18011KT 25/18 A2983 RMK A01 T02450183  RH  068%=      5-min Rain = 0
KCO3 241508Z 17010KT 25/18 A2983 RMK A01 T02460180  RH  067%=      5-min Rain = 0
KCO3 241509Z 18013KT 25/18 A2983 RMK A01 T02460180  RH  067%=      5-min Rain = 0
KCO3 241510Z 18012G17KT 25/18 A2982 RMK A01 T02460179  RH  066%=      5-min Rain = 0
KCO3 241511Z 19011KT 25/18 A2982 RMK A01 T02460182  RH  067%=      5-min Rain = 0
KCO3 241512Z 19010KT 25/18 A2982 RMK A01 T02470181  RH  067%=      5-min Rain = 0
KCO3 241513Z 20009KT 25/18 A2982 RMK A01 T02470183  RH  067%=      5-min Rain = 0
KCO3 241514Z 19009G14KT 25/18 A2982 RMK A01 T02490182  RH  066%=      5-min Rain = 0
KCO3 241515Z 17006KT 25/19 A2982 RMK A01 T02500185  RH  067%=      5-min Rain = 0
KCO3 241516Z 16005KT 25/19 A2982 RMK A01 T02530190  RH  068%=      5-min Rain = 0
KCO3 241517Z 16007KT 26/19 A2982 RMK A01 T02570187  RH  065%=      5-min Rain = 0
KCO3 241518Z 16009KT 26/18 A2982 RMK A01 T02580184  RH  064%=      5-min Rain = 0
KCO3 241519Z 17009G15KT 26/18 A2982 RMK A01 T02580184  RH  064%=      5-min Rain = 0
KCO3 241520Z 16010KT 26/18 A2982 RMK A01 T02570182  RH  063%=      5-min Rain = 0
KCO3 241521Z 16010G18KT 25/18 A2982 RMK A01 T02540180  RH  064%=      5-min Rain = 0
KCO3 241522Z 17010KT 25/18 A2982 RMK A01 T02530178  RH  063%=      5-min Rain = 0
KCO3 241523Z 18008KT 25/18 A2982 RMK A01 T02530181  RH  064%=      5-min Rain = 0
KCO3 241524Z 18007KT 26/18 A2982 RMK A01 T02560180  RH  063%=      5-min Rain = 0
KCO3 241525Z 19010G17KT 26/18 A2982 RMK A01 T02570183  RH  063%=      5-min Rain = 0
KCO3 241526Z 18012G19KT 26/18 A2982 RMK A01 T02590176  RH  060%=      5-min Rain = 0
KCO3 241527Z 18013G18KT 26/17 A2982 RMK A01 T02570172  RH  059%=      5-min Rain = 0
KCO3 241528Z 16011KT 26/18 A2982 RMK A01 T02550175  RH  061%=      5-min Rain = 0
KCO3 241529Z 16012G17KT 26/17 A2982 RMK A01 T02550173  RH  060%=      5-min Rain = 0
KCO3 241530Z 17012G17KT 26/17 A2982 RMK A01 T02560172  RH  060%=      5-min Rain = 0
KCO3 241531Z 18011G16KT 26/17 A2982 RMK A01 T02560173  RH  060%=      5-min Rain = 0
KCO3 241532Z 19011KT 26/17 A2982 RMK A01 T02560173  RH  060%=      5-min Rain = 0
KCO3 241533Z 20012G17KT 26/18 A2982 RMK A01 T02560178  RH  062%=      5-min Rain = 0
KCO3 241534Z 20012KT 26/18 A2982 RMK A01 T02560177  RH  061%=      5-min Rain = 0
KCO3 241535Z 17011KT 26/18 A2982 RMK A01 T02560181  RH  063%=      5-min Rain = 0
KCO3 241536Z 17009KT 26/18 A2982 RMK A01 T02570179  RH  062%=      5-min Rain = 0
KCO3 241537Z 17009G14KT 26/18 A2982 RMK A01 T02580180  RH  062%=      5-min Rain = 0
KCO3 241538Z 17011G16KT 26/18 A2982 RMK A01 T02600176  RH  060%=      5-min Rain = 0
KCO3 241539Z 17009KT 26/18 A2982 RMK A01 T02600180  RH  061%=      5-min Rain = 0
KCO3 241540Z 18008KT 26/18 A2982 RMK A01 T02620180  RH  061%=      5-min Rain = 0
KCO3 241541Z 15008G14KT 26/18 A2982 RMK A01 T02630178  RH  060%=      5-min Rain = 0
KCO3 241542Z 15012G18KT 26/18 A2982 RMK A01 T02640178  RH  059%=      5-min Rain = 0
KCO3 241543Z 16012G18KT 26/18 A2982 RMK A01 T02630176  RH  059%=      5-min Rain = 0
KCO3 241544Z 18014G21KT 26/17 A2982 RMK A01 T02630173  RH  058%=      5-min Rain = 0
KCO3 241545Z 19014G19KT 26/17 A2982 RMK A01 T02630171  RH  057%=      5-min Rain = 0
KCO3 241546Z 19012G20KT 26/17 A2982 RMK A01 T02620171  RH  057%=      5-min Rain = 0
KCO3 241547Z 18014G21KT 26/17 A2982 RMK A01 T02630171  RH  057%=      5-min Rain = 0
KCO3 241548Z 19016G21KT 26/17 A2982 RMK A01 T02630170  RH  057%=      5-min Rain = 0
KCO3 241549Z 19013G21KT 26/17 A2982 RMK A01 T02630168  RH  056%=      5-min Rain = 0
KCO3 241550Z 18013G18KT 26/17 A2982 RMK A01 T02620168  RH  056%=      5-min Rain = 0
KCO3 241551Z 19009KT 26/17 A2982 RMK A01 T02620169  RH  056%=      5-min Rain = 0
KCO3 241552Z 18011G16KT 26/17 A2982 RMK A01 T02640171  RH  057%=      5-min Rain = 0
KCO3 241553Z 19012G18KT 27/17 A2982 RMK A01 T02650171  RH  056%=      5-min Rain = 0
KCO3 241554Z 20015G21KT 27/17 A2982 RMK A01 T02660169  RH  055%=      5-min Rain = 0
KCO3 241555Z 19014G20KT 27/17 A2982 RMK A01 T02660168  RH  055%=      5-min Rain = 0
KCO3 241556Z 19015G21KT 27/17 A2982 RMK A01 T02650168  RH  055%=      5-min Rain = 0
KCO3 241557Z 19014KT 26/17 A2982 RMK A01 T02640168  RH  055%=      5-min Rain = 0
KCO3 241558Z 20012G19KT 26/17 A2982 RMK A01 T02640167  RH  055%=      5-min Rain = 0
KCO3 241559Z 19009G14KT 26/17 A2982 RMK A01 T02640169  RH  056%=      5-min Rain = 0
KCO3 241600Z 21010G18KT 27/17 A2982 RMK A01 T02660170  RH  056%=      5-min Rain = 0
KCO3 241601Z 19011G17KT 27/17 A2982 RMK A01 T02670172  RH  056%=      5-min Rain = 0
KCO3 241602Z 16012G18KT 27/17 A2982 RMK A01 T02690170  RH  054%=      5-min Rain = 0
KCO3 241603Z 17013G22KT 27/17 A2982 RMK A01 T02700168  RH  054%=      5-min Rain = 0
KCO3 241604Z 19016G22KT 27/17 A2982 RMK A01 T02690167  RH  054%=      5-min Rain = 0
KCO3 241605Z 19015G20KT 27/17 A2982 RMK A01 T02670167  RH  054%=      5-min Rain = 0
KCO3 241606Z 19015G20KT 27/17 A2982 RMK A01 T02670166  RH  054%=      5-min Rain = 0
KCO3 241607Z 19014G19KT 27/17 A2982 RMK A01 T02670166  RH  054%=      5-min Rain = 0
KCO3 241608Z 20015G21KT 27/17 A2982 RMK A01 T02670166  RH  054%=      5-min Rain = 0
KCO3 241609Z 19014G20KT 27/17 A2982 RMK A01 T02670166  RH  054%=      5-min Rain = 0
KCO3 241610Z 19014G19KT 27/17 A2982 RMK A01 T02670165  RH  054%=      5-min Rain = 0
KCO3 241611Z 18017G24KT 27/16 A2982 RMK A01 T02670164  RH  053%=      5-min Rain = 0
KCO3 241612Z 18013G19KT 27/17 A2982 RMK A01 T02660165  RH  054%=      5-min Rain = 0
KCO3 241613Z 18012G20KT 27/17 A2982 RMK A01 T02670166  RH  054%=      5-min Rain = 0
KCO3 241614Z 18016G22KT 27/17 A2982 RMK A01 T02680165  RH  053%=      5-min Rain = 0
KCO3 241615Z 18013G18KT 27/16 A2982 RMK A01 T02680162  RH  052%=      5-min Rain = 0
KCO3 241616Z 18009G14KT 27/17 A2982 RMK A01 T02670165  RH  054%=      5-min Rain = 0
KCO3 241617Z 19012G21KT 27/17 A2982 RMK A01 T02690168  RH  054%=      5-min Rain = 0
KCO3 241618Z 19015G21KT 27/17 A2982 RMK A01 T02720167  RH  053%=      5-min Rain = 0
KCO3 241619Z 17016G21KT 27/16 A2982 RMK A01 T02720164  RH  052%=      5-min Rain = 0
KCO3 241620Z 17011G18KT 27/17 A2982 RMK A01 T02710166  RH  053%=      5-min Rain = 0
KCO3 241621Z 19014G19KT 27/16 A2982 RMK A01 T02710164  RH  052%=      5-min Rain = 0
KCO3 241622Z 18013G18KT 27/16 A2982 RMK A01 T02700162  RH  052%=      5-min Rain = 0
KCO3 241623Z 20012G17KT 27/17 A2982 RMK A01 T02690166  RH  053%=      5-min Rain = 0
KCO3 241624Z 19010KT 27/17 A2982 RMK A01 T02700168  RH  054%=      5-min Rain = 0
KCO3 241625Z 19013G20KT 27/17 A2982 RMK A01 T02720168  RH  053%=      5-min Rain = 0
KCO3 241626Z 16008KT 27/17 A2982 RMK A01 T02730171  RH  054%=      5-min Rain = 0
KCO3 241627Z 16010G18KT 28/17 A2982 RMK A01 T02750170  RH  053%=      5-min Rain = 0
KCO3 241628Z 16017G22KT 28/17 A2982 RMK A01 T02750169  RH  052%=      5-min Rain = 0
KCO3 241629Z 16014G20KT 27/17 A2982 RMK A01 T02720169  RH  053%=      5-min Rain = 0
KCO3 241630Z 18014KT 27/17 A2982 RMK A01 T02720169  RH  053%=      5-min Rain = 0
KCO3 241631Z 15012G18KT 27/17 A2982 RMK A01 T02720169  RH  053%=      5-min Rain = 0
KCO3 241632Z 16015G21KT 27/17 A2982 RMK A01 T02720167  RH  053%=      5-min Rain = 0
KCO3 241633Z 17015G22KT 27/17 A2982 RMK A01 T02710170  RH  054%=      5-min Rain = 0
KCO3 241634Z 16017G22KT 27/17 A2982 RMK A01 T02730168  RH  053%=      5-min Rain = 0
KCO3 241635Z 17014G21KT 27/17 A2982 RMK A01 T02720167  RH  053%=      5-min Rain = 0
KCO3 241636Z 16013G18KT 27/17 A2982 RMK A01 T02710169  RH  054%=      5-min Rain = 0
KCO3 241637Z 18013G18KT 27/17 A2982 RMK A01 T02740173  RH  054%=      5-min Rain = 0
KCO3 241638Z 17012KT 28/17 A2982 RMK A01 T02760167  RH  051%=      5-min Rain = 0
KCO3 241639Z 18011G19KT 28/17 A2982 RMK A01 T02750171  RH  053%=      5-min Rain = 0
KCO3 241640Z 19018G23KT 28/17 A2982 RMK A01 T02750167  RH  052%=      5-min Rain = 0
KCO3 241641Z 19012G18KT 27/17 A2982 RMK A01 T02740167  RH  052%=      5-min Rain = 0
KCO3 241642Z 18012KT 27/17 A2982 RMK A01 T02740169  RH  053%=      5-min Rain = 0
KCO3 241643Z 16012G19KT 28/17 A2982 RMK A01 T02750170  RH  053%=      5-min Rain = 0
KCO3 241644Z 17013G20KT 28/17 A2982 RMK A01 T02770171  RH  053%=      5-min Rain = 0
KCO3 241645Z 16013G19KT 28/17 A2982 RMK A01 T02770167  RH  051%=      5-min Rain = 0
KCO3 241646Z 17014G19KT 28/17 A2982 RMK A01 T02770166  RH  051%=      5-min Rain = 0
KCO3 241647Z 16011G17KT 28/17 A2982 RMK A01 T02760168  RH  052%=      5-min Rain = 0
KCO3 241648Z 15014KT 28/17 A2982 RMK A01 T02760167  RH  052%=      5-min Rain = 0
KCO3 241649Z 16014G20KT 28/17 A2982 RMK A01 T02760166  RH  051%=      5-min Rain = 0
KCO3 241650Z 17014G20KT 28/17 A2982 RMK A01 T02750166  RH  052%=      5-min Rain = 0
KCO3 241651Z 16012G17KT 27/17 A2982 RMK A01 T02740168  RH  052%=      5-min Rain = 0
KCO3 241652Z 17011KT 28/17 A2982 RMK A01 T02750169  RH  052%=      5-min Rain = 0
KCO3 241653Z 17017G24KT 28/17 A2982 RMK A01 T02770167  RH  051%=      5-min Rain = 0
KCO3 241654Z 18016G21KT 28/17 A2982 RMK A01 T02770165  RH  050%=      5-min Rain = 0
KCO3 241655Z 19013G18KT 28/17 A2982 RMK A01 T02750165  RH  051%=      5-min Rain = 0
KCO3 241656Z 20013G20KT 28/17 A2982 RMK A01 T02750165  RH  051%=      5-min Rain = 0
KCO3 241657Z 18013G18KT 28/17 A2982 RMK A01 T02760167  RH  052%=      5-min Rain = 0
KCO3 241658Z 17012KT 28/17 A2982 RMK A01 T02770170  RH  052%=      5-min Rain = 0
KCO3 241659Z 17011KT 28/17 A2982 RMK A01 T02780172  RH  052%=      5-min Rain = 0
KCO3 241700Z 17009G17KT 28/17 A2982 RMK A01 T02800174  RH  053%=      5-min Rain = 0
KCO3 241701Z 16013G20KT 28/18 A2982 RMK A01 T02810175  RH  052%=      5-min Rain = 0
KCO3 241702Z 16012KT 28/18 A2982 RMK A01 T02810175  RH  052%=      5-min Rain = 0
KCO3 241703Z 15013G19KT 28/17 A2982 RMK A01 T02820174  RH  052%=      5-min Rain = 0
KCO3 241704Z 15017G27KT 28/17 A2981 RMK A01 T02810172  RH  052%=      5-min Rain = 0
KCO3 241705Z 17017G22KT 28/17 A2981 RMK A01 T02810171  RH  051%=      5-min Rain = 0
KCO3 241706Z 15016G23KT 28/17 A2982 RMK A01 T02810170  RH  051%=      5-min Rain = 0
KCO3 241707Z 15015G23KT 28/17 A2982 RMK A01 T02800169  RH  051%=      5-min Rain = 0
KCO3 241708Z 16013KT 28/17 A2982 RMK A01 T02790168  RH  051%=      5-min Rain = 0
KCO3 241709Z 17017G25KT 28/17 A2982 RMK A01 T02790166  RH  050%=      5-min Rain = 0
KCO3 241710Z 18018G23KT 28/17 A2982 RMK A01 T02790165  RH  050%=      5-min Rain = 0
KCO3 241711Z 17014G25KT 28/17 A2982 RMK A01 T02770167  RH  051%=      5-min Rain = 0
KCO3 241712Z 17015G20KT 28/16 A2982 RMK A01 T02780164  RH  050%=      5-min Rain = 0
KCO3 241713Z 17015G21KT 28/17 A2982 RMK A01 T02780165  RH  050%=      5-min Rain = 0
KCO3 241714Z 18013G21KT 28/17 A2981 RMK A01 T02780166  RH  050%=      5-min Rain = 0
KCO3 241715Z 17012G19KT 28/17 A2981 RMK A01 T02790168  RH  051%=      5-min Rain = 0
KCO3 241716Z 18012G19KT 28/17 A2981 RMK A01 T02830172  RH  051%=      5-min Rain = 0
KCO3 241717Z 16018G26KT 29/17 A2981 RMK A01 T02860167  RH  049%=      5-min Rain = 0
KCO3 241718Z 17016G23KT 29/16 A2981 RMK A01 T02850163  RH  048%=      5-min Rain = 0
KCO3 241719Z 16011G17KT 28/17 A2981 RMK A01 T02820168  RH  050%=      5-min Rain = 0
KCO3 241720Z 16012G22KT 29/17 A2981 RMK A01 T02850172  RH  050%=      5-min Rain = 0
KCO3 241721Z 16014G22KT 29/17 A2981 RMK A01 T02880170  RH  049%=      5-min Rain = 0
KCO3 241722Z 17014G19KT 29/17 A2981 RMK A01 T02880167  RH  048%=      5-min Rain = 0
KCO3 241723Z 16014G20KT 29/17 A2981 RMK A01 T02870170  RH  049%=      5-min Rain = 0
KCO3 241724Z 17012G22KT 29/17 A2981 RMK A01 T02870170  RH  049%=      5-min Rain = 0
KCO3 241725Z 17014G24KT 29/17 A2981 RMK A01 T02890171  RH  049%=      5-min Rain = 0
KCO3 241726Z 18016G25KT 29/17 A2981 RMK A01 T02900169  RH  048%=      5-min Rain = 0
KCO3 241727Z 19017G22KT 29/17 A2981 RMK A01 T02870165  RH  048%=      5-min Rain = 0
KCO3 241728Z 18014G20KT 28/17 A2981 RMK A01 T02830166  RH  049%=      5-min Rain = 0
KCO3 241729Z 17015G21KT 28/17 A2981 RMK A01 T02830168  RH  050%=      5-min Rain = 0
KCO3 241730Z 16016G23KT 28/17 A2981 RMK A01 T02840166  RH  049%=      5-min Rain = 0
KCO3 241731Z 16016G27KT 28/17 A2981 RMK A01 T02840168  RH  050%=      5-min Rain = 0
KCO3 241732Z 19011G19KT 29/17 A2981 RMK A01 T02860172  RH  050%=      5-min Rain = 0
KCO3 241733Z 19014G20KT 29/17 A2981 RMK A01 T02890169  RH  048%=      5-min Rain = 0
KCO3 241734Z 19014G26KT 29/17 A2981 RMK A01 T02880167  RH  048%=      5-min Rain = 0
KCO3 241735Z 17010G17KT 29/17 A2981 RMK A01 T02870172  RH  050%=      5-min Rain = 0
KCO3 241736Z 16015G21KT 29/17 A2981 RMK A01 T02890171  RH  049%=      5-min Rain = 0
KCO3 241737Z 16014G23KT 29/17 A2981 RMK A01 T02870172  RH  050%=      5-min Rain = 0
KCO3 241738Z 17015KT 29/17 A2981 RMK A01 T02860170  RH  049%=      5-min Rain = 0
KCO3 241739Z 17013G18KT 29/17 A2981 RMK A01 T02850170  RH  050%=      5-min Rain = 0
KCO3 241740Z 17010G17KT 28/17 A298 RMK A01 T02840173  RH  051%=      5-min Rain = 0
KCO3 241741Z 18009KT 29/17 A298 RMK A01 T02860173  RH  050%=      5-min Rain = 0
KCO3 241742Z 18010G17KT 29/18 A298 RMK A01 T02890178  RH  051%=      5-min Rain = 0
KCO3 241743Z 17011G20KT 29/18 A298 RMK A01 T02930177  RH  050%=      5-min Rain = 0
KCO3 241744Z 16013G19KT 29/18 A298 RMK A01 T02940175  RH  049%=      5-min Rain = 0
KCO3 241745Z 15014G21KT 29/18 A298 RMK A01 T02930175  RH  049%=      5-min Rain = 0
KCO3 241746Z 16017G23KT 29/17 A298 RMK A01 T02900173  RH  049%=      5-min Rain = 0
KCO3 241747Z 16016G21KT 29/17 A298 RMK A01 T02880171  RH  049%=      5-min Rain = 0
KCO3 241748Z 16013G18KT 29/17 A298 RMK A01 T02860171  RH  050%=      5-min Rain = 0
KCO3 241749Z 17017G22KT 29/17 A298 RMK A01 T02850173  RH  051%=      5-min Rain = 0
KCO3 241750Z 17016G21KT 29/17 A298 RMK A01 T02860172  RH  050%=      5-min Rain = 0
KCO3 241751Z 17016G21KT 29/17 A298 RMK A01 T02860171  RH  050%=      5-min Rain = 0
KCO3 241752Z 16012G20KT 29/17 A298 RMK A01 T02850172  RH  050%=      5-min Rain = 0
KCO3 241753Z 16010G18KT 29/18 A298 RMK A01 T02870178  RH  052%=      5-min Rain = 0
KCO3 241754Z 17016G22KT 29/17 A298 RMK A01 T02910174  RH  049%=      5-min Rain = 0
KCO3 241755Z 16015G23KT 29/17 A298 RMK A01 T02900174  RH  050%=      5-min Rain = 0
KCO3 241756Z 16017G22KT 29/17 A298 RMK A01 T02890173  RH  050%=      5-min Rain = 0
KCO3 241757Z 15014G21KT 29/17 A298 RMK A01 T02880170  RH  049%=      5-min Rain = 0
KCO3 241758Z 16015G22KT 29/17 A2979 RMK A01 T02860172  RH  050%=      5-min Rain = 0
KCO3 241759Z 15014G21KT 29/17 A2979 RMK A01 T02850172  RH  050%=      5-min Rain = 0
KCO3 241800Z 16013KT 29/17 A2979 RMK A01 T02850173  RH  051%=      5-min Rain = 0
KCO3 241801Z 16015G24KT 29/18 A2979 RMK A01 T02880176  RH  051%=      5-min Rain = 0
KCO3 241802Z 17015G21KT 29/17 A2979 RMK A01 T02890173  RH  049%=      5-min Rain = 0
KCO3 241803Z 17014KT 29/17 A2979 RMK A01 T02880173  RH  050%=      5-min Rain = 0
KCO3 241804Z 16014G21KT 29/18 A2979 RMK A01 T02880175  RH  050%=      5-min Rain = 0
KCO3 241805Z 17014G21KT 29/18 A2979 RMK A01 T02900175  RH  050%=      5-min Rain = 0
KCO3 241806Z 18012G21KT 29/18 A2979 RMK A01 T02920177  RH  050%=      5-min Rain = 0
KCO3 241807Z 17016G24KT 29/17 A2979 RMK A01 T02930174  RH  049%=      5-min Rain = 0
KCO3 241808Z 16017KT 29/17 A2979 RMK A01 T02910172  RH  049%=      5-min Rain = 0
KCO3 241809Z 16013G18KT 29/17 A2979 RMK A01 T02880172  RH  049%=      5-min Rain = 0
KCO3 241810Z 19011KT 29/18 A2979 RMK A01 T02890175  RH  050%=      5-min Rain = 0
KCO3 241811Z 19010KT 29/17 A2979 RMK A01 T02920174  RH  049%=      5-min Rain = 0
KCO3 241812Z 18010G20KT 29/18 A2978 RMK A01 T02930177  RH  050%=      5-min Rain = 0
KCO3 241813Z 17017G25KT 30/18 A2978 RMK A01 T02960175  RH  048%=      5-min Rain = 0
KCO3 241814Z 17013G18KT 30/17 A2978 RMK A01 T02950172  RH  048%=      5-min Rain = 0
KCO3 241815Z 19013G22KT 29/18 A2978 RMK A01 T02930175  RH  049%=      5-min Rain = 0
KCO3 241816Z 19017G26KT 30/17 A2978 RMK A01 T02950172  RH  048%=      5-min Rain = 0
KCO3 241817Z 18014G23KT 30/17 A2978 RMK A01 T02960174  RH  048%=      5-min Rain = 0
KCO3 241818Z 18016G23KT 30/17 A2978 RMK A01 T02970171  RH  046%=      5-min Rain = 0
KCO3 241819Z 18018G24KT 30/17 A2978 RMK A01 T02950169  RH  046%=      5-min Rain = 0
KCO3 241820Z 18014G23KT 29/17 A2978 RMK A01 T02930169  RH  047%=      5-min Rain = 0
KCO3 241821Z 16016G21KT 29/17 A2978 RMK A01 T02940169  RH  047%=      5-min Rain = 0
KCO3 241822Z 16016G21KT 29/17 A2978 RMK A01 T02940168  RH  047%=      5-min Rain = 0
KCO3 241823Z 17012G19KT 29/17 A2978 RMK A01 T02930169  RH  047%=      5-min Rain = 0
KCO3 241824Z 17011G16KT 29/17 A2978 RMK A01 T02940174  RH  048%=      5-min Rain = 0
KCO3 241825Z 17011G19KT 30/18 A2978 RMK A01 T02980175  RH  048%=      5-min Rain = 0
KCO3 241826Z 18012G18KT 30/17 A2978 RMK A01 T03000172  RH  046%=      5-min Rain = 0
KCO3 241827Z 15016G27KT 30/18 A2978 RMK A01 T02990175  RH  047%=      5-min Rain = 0
KCO3 241828Z 17015G21KT 30/18 A2978 RMK A01 T03000175  RH  047%=      5-min Rain = 0
KCO3 241829Z 17012G18KT 30/17 A2978 RMK A01 T03000174  RH  047%=      5-min Rain = 0
KCO3 241830Z 18014KT 30/17 A2978 RMK A01 T02990172  RH  046%=      5-min Rain = 0
KCO3 241831Z 16014G21KT 30/17 A2978 RMK A01 T02980172  RH  047%=      5-min Rain = 0
KCO3 241832Z 16015G21KT 30/17 A2978 RMK A01 T02980173  RH  047%=      5-min Rain = 0
KCO3 241833Z 16017G25KT 30/17 A2978 RMK A01 T02980171  RH  047%=      5-min Rain = 0
KCO3 241834Z 16015G20KT 30/17 A2978 RMK A01 T02960172  RH  047%=      5-min Rain = 0
KCO3 241835Z 16012G20KT 30/17 A2978 RMK A01 T02950172  RH  048%=      5-min Rain = 0
KCO3 241836Z 16010G15KT 30/18 A2978 RMK A01 T02960176  RH  049%=      5-min Rain = 0
KCO3 241837Z 16015G22KT 30/17 A2978 RMK A01 T02990173  RH  047%=      5-min Rain = 0
KCO3 241838Z 15012KT 30/17 A2978 RMK A01 T02980174  RH  047%=      5-min Rain = 0
KCO3 241839Z 16014KT 30/17 A2978 RMK A01 T02980174  RH  047%=      5-min Rain = 0
KCO3 241840Z 16011G16KT 30/17 A2978 RMK A01 T02980174  RH  047%=      5-min Rain = 0
KCO3 241841Z 16016KT 30/18 A2978 RMK A01 T02980175  RH  048%=      5-min Rain = 0
KCO3 241842Z 17011G16KT 30/18 A2978 RMK A01 T02990175  RH  047%=      5-min Rain = 0
KCO3 241843Z 17013G19KT 30/17 A2978 RMK A01 T03000174  RH  047%=      5-min Rain = 0
KCO3 241844Z 18014G21KT 30/18 A2978 RMK A01 T02990175  RH  047%=      5-min Rain = 0
KCO3 241845Z 18017G29KT 30/17 A2977 RMK A01 T02990173  RH  047%=      5-min Rain = 0
KCO3 241846Z 16019G28KT 30/17 A2977 RMK A01 T02980174  RH  047%=      5-min Rain = 0
KCO3 241847Z 16017G22KT 30/17 A2977 RMK A01 T02980174  RH  047%=      5-min Rain = 0
KCO3 241848Z 17016G23KT 30/17 A2977 RMK A01 T02970173  RH  047%=      5-min Rain = 0
KCO3 241849Z 15012G17KT 30/18 A2977 RMK A01 T02960175  RH  048%=      5-min Rain = 0
KCO3 241850Z 15011G16KT 30/18 A2977 RMK A01 T02970176  RH  048%=      5-min Rain = 0
KCO3 241851Z 16010G16KT 30/18 A2977 RMK A01 T02980177  RH  048%=      5-min Rain = 0
KCO3 241852Z 17013G19KT 30/18 A2977 RMK A01 T03000176  RH  047%=      5-min Rain = 0
KCO3 241853Z 16018G27KT 30/18 A2977 RMK A01 T03000176  RH  047%=      5-min Rain = 0
KCO3 241854Z 17013G21KT 30/18 A2977 RMK A01 T03000178  RH  048%=      5-min Rain = 0
KCO3 241855Z 17016G22KT 30/18 A2977 RMK A01 T03010175  RH  047%=      5-min Rain = 0
KCO3 241856Z 20015G22KT 30/18 A2977 RMK A01 T03000177  RH  048%=      5-min Rain = 0
KCO3 241857Z 19014KT 30/18 A2977 RMK A01 T03010178  RH  048%=      5-min Rain = 0
KCO3 241858Z 17011G17KT 30/18 A2977 RMK A01 T03010178  RH  048%=      5-min Rain = 0
KCO3 241859Z 17013G19KT 30/18 A2977 RMK A01 T03010179  RH  048%=      5-min Rain = 0
KCO3 241900Z 18011KT 30/18 A2977 RMK A01 T03020179  RH  048%=      5-min Rain = 0
KCO3 241901Z 20010G15KT 30/18 A2977 RMK A01 T03040183  RH  048%=      5-min Rain = 0
KCO3 241902Z 19011G16KT 31/18 A2977 RMK A01 T03070181  RH  047%=      5-min Rain = 0
KCO3 241903Z 18015G20KT 31/18 A2977 RMK A01 T03060180  RH  047%=      5-min Rain = 0
KCO3 241904Z 16016KT 30/18 A2977 RMK A01 T03030179  RH  048%=      5-min Rain = 0
KCO3 241905Z 17012G17KT 30/18 A2977 RMK A01 T03010179  RH  048%=      5-min Rain = 0
KCO3 241906Z 19015G20KT 30/18 A2977 RMK A01 T03010180  RH  048%=      5-min Rain = 0
KCO3 241907Z 18011G18KT 30/18 A2977 RMK A01 T03030183  RH  049%=      5-min Rain = 0
KCO3 241908Z 19011G16KT 31/18 A2977 RMK A01 T03050181  RH  048%=      5-min Rain = 0
KCO3 241909Z 19009G14KT 30/18 A2977 RMK A01 T03040184  RH  049%=      5-min Rain = 0
KCO3 241910Z 16008G14KT 31/19 A2976 RMK A01 T03070187  RH  049%=      5-min Rain = 0
KCO3 241911Z 16010G18KT 31/18 A2976 RMK A01 T03080184  RH  047%=      5-min Rain = 0
KCO3 241912Z 16013G18KT 31/18 A2976 RMK A01 T03060184  RH  048%=      5-min Rain = 0
KCO3 241913Z 16014G21KT 30/18 A2976 RMK A01 T03040183  RH  048%=      5-min Rain = 0
KCO3 241914Z 17013G21KT 30/19 A2976 RMK A01 T03040187  RH  050%=      5-min Rain = 0
KCO3 241915Z 17012G18KT 31/18 A2976 RMK A01 T03070184  RH  048%=      5-min Rain = 0
KCO3 241916Z 18011G19KT 31/19 A2976 RMK A01 T03070186  RH  049%=      5-min Rain = 0
KCO3 241917Z 19013G19KT 31/19 A2976 RMK A01 T03090185  RH  047%=      5-min Rain = 0
KCO3 241918Z 21012KT 31/18 A2976 RMK A01 T03080184  RH  048%=      5-min Rain = 0
KCO3 241919Z 20010KT 31/18 A2976 RMK A01 T03050181  RH  048%=      5-min Rain = 0
KCO3 241920Z 19010KT 30/18 A2976 RMK A01 T03020182  RH  049%=      5-min Rain = 0
KCO3 241921Z 17008G14KT 30/19 A2976 RMK A01 T03020185  RH  049%=      5-min Rain = 0
KCO3 241922Z 15013G19KT 31/19 A2976 RMK A01 T03050186  RH  049%=      5-min Rain = 0
KCO3 241923Z 16011G16KT 31/19 A2976 RMK A01 T03070186  RH  048%=      5-min Rain = 0
KCO3 241924Z 20013G18KT 31/19 A2976 RMK A01 T03080186  RH  048%=      5-min Rain = 0
KCO3 241925Z 20013G18KT 31/19 A2976 RMK A01 T03090188  RH  049%=      5-min Rain = 0
KCO3 241926Z 20013KT 31/19 A2976 RMK A01 T03100185  RH  047%=      5-min Rain = 0
KCO3 241927Z 20011G19KT 31/19 A2975 RMK A01 T03070186  RH  048%=      5-min Rain = 0
KCO3 241928Z 20010G15KT 31/19 A2975 RMK A01 T03050186  RH  049%=      5-min Rain = 0
KCO3 241929Z 18012G17KT 31/19 A2975 RMK A01 T03070188  RH  049%=      5-min Rain = 0
KCO3 241930Z 16010G15KT 31/19 A2975 RMK A01 T03080189  RH  049%=      5-min Rain = 0
KCO3 241931Z 16012G19KT 31/19 A2975 RMK A01 T03080186  RH  048%=      5-min Rain = 0
KCO3 241932Z 17011KT 31/18 A2975 RMK A01 T03060184  RH  048%=      5-min Rain = 0
KCO3 241933Z 17013G19KT 31/19 A2975 RMK A01 T03050187  RH  049%=      5-min Rain = 0
KCO3 241934Z 19014G19KT 31/19 A2975 RMK A01 T03050185  RH  049%=      5-min Rain = 0
KCO3 241935Z 19011G16KT 30/18 A2975 RMK A01 T03030184  RH  049%=      5-min Rain = 0
KCO3 241936Z 19011G16KT 30/18 A2975 RMK A01 T03000184  RH  050%=      5-min Rain = 0
KCO3 241937Z 16012G19KT 30/19 A2975 RMK A01 T03000187  RH  051%=      5-min Rain = 0
KCO3 241938Z 18012G17KT 30/19 A2975 RMK A01 T03010186  RH  050%=      5-min Rain = 0
KCO3 241939Z 20013G18KT 30/19 A2975 RMK A01 T03030186  RH  050%=      5-min Rain = 0
KCO3 241940Z 20009KT 31/19 A2975 RMK A01 T03050185  RH  049%=      5-min Rain = 0
KCO3 241941Z 20013KT 31/19 A2975 RMK A01 T03050187  RH  049%=      5-min Rain = 0
KCO3 241942Z 21011KT 31/19 A2975 RMK A01 T03060185  RH  049%=      5-min Rain = 0
KCO3 241943Z 19011KT 30/19 A2975 RMK A01 T03040186  RH  049%=      5-min Rain = 0
KCO3 241944Z 17011KT 30/19 A2975 RMK A01 T03030187  RH  050%=      5-min Rain = 0
KCO3 241945Z 17010G18KT 30/19 A2975 RMK A01 T03040185  RH  049%=      5-min Rain = 0
KCO3 241946Z 19013G20KT 30/19 A2975 RMK A01 T03040186  RH  049%=      5-min Rain = 0
KCO3 241947Z 19011G16KT 31/19 A2975 RMK A01 T03050186  RH  049%=      5-min Rain = 0
KCO3 241948Z 19011G16KT 31/19 A2975 RMK A01 T03080190  RH  049%=      5-min Rain = 0
KCO3 241949Z 20013KT 31/19 A2975 RMK A01 T03120188  RH  048%=      5-min Rain = 0
KCO3 241950Z 19013KT 31/19 A2975 RMK A01 T03110188  RH  048%=      5-min Rain = 0
KCO3 241951Z 20013KT 31/19 A2975 RMK A01 T03100188  RH  048%=      5-min Rain = 0
KCO3 241952Z 21013G18KT 31/19 A2975 RMK A01 T03100186  RH  048%=      5-min Rain = 0
KCO3 241953Z 20009KT 31/19 A2975 RMK A01 T03090188  RH  049%=      5-min Rain = 0
KCO3 241954Z 19010KT 31/18 A2975 RMK A01 T03080184  RH  048%=      5-min Rain = 0
KCO3 241955Z 17009KT 30/19 A2975 RMK A01 T03040186  RH  049%=      5-min Rain = 0
KCO3 241956Z 16011KT 30/19 A2975 RMK A01 T03030186  RH  049%=      5-min Rain = 0
KCO3 241957Z 16006KT 30/19 A2975 RMK A01 T03030189  RH  051%=      5-min Rain = 0
KCO3 241958Z 18007KT 31/19 A2975 RMK A01 T03060188  RH  049%=      5-min Rain = 0
KCO3 241959Z 18009KT 31/19 A2974 RMK A01 T03080189  RH  049%=      5-min Rain = 0
KCO3 242000Z 17010KT 31/19 A2974 RMK A01 T03100188  RH  048%=      5-min Rain = 0
KCO3 242001Z 18010G15KT 31/19 A2974 RMK A01 T03100190  RH  049%=      5-min Rain = 0
KCO3 242002Z 18010G15KT 31/19 A2974 RMK A01 T03090189  RH  049%=      5-min Rain = 0
KCO3 242003Z 19010G16KT 31/19 A2975 RMK A01 T03070187  RH  049%=      5-min Rain = 0
KCO3 242004Z 17012G19KT 30/19 A2974 RMK A01 T03040185  RH  049%=      5-min Rain = 0
KCO3 242005Z 18014G19KT 30/18 A2975 RMK A01 T03020183  RH  049%=      5-min Rain = 0
KCO3 242006Z 18011KT 30/18 A2975 RMK A01 T03000183  RH  049%=      5-min Rain = 0
KCO3 242007Z 18009G15KT 30/19 A2975 RMK A01 T03000185  RH  050%=      5-min Rain = 0
KCO3 242008Z 19008G13KT 30/18 A2974 RMK A01 T03010183  RH  049%=      5-min Rain = 0
KCO3 242009Z 19008KT 30/19 A2974 RMK A01 T03010185  RH  050%=      5-min Rain = 0
KCO3 242010Z 19010G15KT 30/19 A2975 RMK A01 T03030187  RH  050%=      5-min Rain = 0
KCO3 242011Z 19008KT 30/19 A2975 RMK A01 T03040187  RH  050%=      5-min Rain = 0
KCO3 242012Z 18007G12KT 30/19 A2975 RMK A01 T03040188  RH  050%=      5-min Rain = 0
KCO3 242013Z 16011KT 30/19 A2974 RMK A01 T03040187  RH  049%=      5-min Rain = 0
KCO3 242014Z 16011G18KT 30/19 A2974 RMK A01 T03040187  RH  050%=      5-min Rain = 0
KCO3 242015Z 17015KT 30/19 A2974 RMK A01 T03040187  RH  050%=      5-min Rain = 0
KCO3 242016Z 16010G16KT 30/19 A2974 RMK A01 T03040188  RH  050%=      5-min Rain = 0
KCO3 242017Z 15011KT 30/19 A2974 RMK A01 T03040188  RH  050%=      5-min Rain = 0
KCO3 242018Z 18011KT 31/19 A2974 RMK A01 T03050186  RH  049%=      5-min Rain = 0
KCO3 242019Z 18007KT 30/19 A2974 RMK A01 T03030186  RH  049%=      5-min Rain = 0
KCO3 242020Z 17007KT 30/19 A2974 RMK A01 T03030188  RH  050%=      5-min Rain = 0
KCO3 242021Z 16009G14KT 30/19 A2974 RMK A01 T03030187  RH  050%=      5-min Rain = 0
KCO3 242022Z 17009KT 30/19 A2974 RMK A01 T03020185  RH  050%=      5-min Rain = 0
KCO3 242023Z 18008KT 30/19 A2974 RMK A01 T03010187  RH  050%=      5-min Rain = 0
KCO3 242024Z 18010KT 30/19 A2974 RMK A01 T03030187  RH  050%=      5-min Rain = 0
KCO3 242025Z 17009G14KT 30/19 A2974 RMK A01 T03040186  RH  049%=      5-min Rain = 0
KCO3 242026Z 15008G13KT 30/19 A2974 RMK A01 T03040186  RH  049%=      5-min Rain = 0
KCO3 242027Z 15008G13KT 30/19 A2974 RMK A01 T03030187  RH  050%=      5-min Rain = 0
KCO3 242028Z 16011KT 30/19 A2974 RMK A01 T03030186  RH  050%=      5-min Rain = 0
KCO3 242029Z 19010G15KT 30/19 A2974 RMK A01 T03030187  RH  050%=      5-min Rain = 0
KCO3 242030Z 19010G15KT 30/19 A2974 RMK A01 T03040185  RH  049%=      5-min Rain = 0
KCO3 242031Z 17008G14KT 30/19 A2974 RMK A01 T03030188  RH  050%=      5-min Rain = 0
KCO3 242032Z 16011KT 30/19 A2974 RMK A01 T03030186  RH  050%=      5-min Rain = 0
KCO3 242033Z 18008KT 30/19 A2974 RMK A01 T03030187  RH  050%=      5-min Rain = 0
KCO3 242034Z 18010KT 30/19 A2973 RMK A01 T03040187  RH  050%=      5-min Rain = 0
KCO3 242035Z 19009KT 31/19 A2973 RMK A01 T03080191  RH  050%=      5-min Rain = 0
KCO3 242036Z 20010KT 31/19 A2973 RMK A01 T03130192  RH  048%=      5-min Rain = 0
KCO3 242037Z 18009G14KT 32/19 A2973 RMK A01 T03170194  RH  048%=      5-min Rain = 0
KCO3 242038Z 20009KT 32/19 A2973 RMK A01 T03210190  RH  046%=      5-min Rain = 0
KCO3 242039Z 20007KT 32/19 A2973 RMK A01 T03190188  RH  046%=      5-min Rain = 0
KCO3 242040Z 20008KT 32/19 A2973 RMK A01 T03170187  RH  046%=      5-min Rain = 0
KCO3 242041Z 18009G14KT 31/18 A2973 RMK A01 T03140184  RH  046%=      5-min Rain = 0
KCO3 242042Z 19006KT 31/18 A2973 RMK A01 T03090184  RH  047%=      5-min Rain = 0
KCO3 242043Z 20007KT 31/19 A2973 RMK A01 T03080187  RH  049%=      5-min Rain = 0
KCO3 242044Z 19007KT 31/19 A2973 RMK A01 T03100188  RH  048%=      5-min Rain = 0
KCO3 242045Z 18008G13KT 31/19 A2973 RMK A01 T03140191  RH  048%=      5-min Rain = 0
KCO3 242046Z 19010KT 32/19 A2973 RMK A01 T03190189  RH  046%=      5-min Rain = 0
KCO3 242047Z 18010KT 32/19 A2973 RMK A01 T03200189  RH  046%=      5-min Rain = 0
KCO3 242048Z 20012G18KT 32/19 A2973 RMK A01 T03200188  RH  046%=      5-min Rain = 0
KCO3 242049Z 20013KT 32/19 A2973 RMK A01 T03190186  RH  045%=      5-min Rain = 0
KCO3 242050Z 20011KT 32/19 A2973 RMK A01 T03180188  RH  046%=      5-min Rain = 0
KCO3 242051Z 20013KT 32/19 A2973 RMK A01 T03190186  RH  045%=      5-min Rain = 0
KCO3 242052Z 19010KT 32/19 A2973 RMK A01 T03170186  RH  046%=      5-min Rain = 0
KCO3 242053Z 17008KT 32/19 A2972 RMK A01 T03170189  RH  047%=      5-min Rain = 0
KCO3 242054Z 18007KT 32/19 A2972 RMK A01 T03170190  RH  047%=      5-min Rain = 0
KCO3 242055Z 17006G12KT 32/19 A2972 RMK A01 T03160191  RH  048%=      5-min Rain = 0
KCO3 242056Z 17008KT 31/19 A2972 RMK A01 T03130189  RH  048%=      5-min Rain = 0
KCO3 242057Z 18013KT 31/19 A2972 RMK A01 T03100187  RH  048%=      5-min Rain = 0
KCO3 242058Z 16012G17KT 31/19 A2972 RMK A01 T03060185  RH  049%=      5-min Rain = 0
KCO3 242059Z 16011KT 30/19 A2972 RMK A01 T03040187  RH  050%=      5-min Rain = 0
KCO3 242100Z 16009KT 30/19 A2972 RMK A01 T03040188  RH  050%=      5-min Rain = 0
KCO3 242101Z 16009KT 31/19 A2972 RMK A01 T03050187  RH  049%=      5-min Rain = 0
KCO3 242102Z 17008KT 31/19 A2972 RMK A01 T03060188  RH  050%=      5-min Rain = 0
KCO3 242103Z 16012G17KT 31/19 A2972 RMK A01 T03090189  RH  049%=      5-min Rain = 0
KCO3 242104Z 16012KT 31/19 A2972 RMK A01 T03100187  RH  048%=      5-min Rain = 0
KCO3 242105Z 16011KT 31/19 A2972 RMK A01 T03090187  RH  048%=      5-min Rain = 0
KCO3 242106Z 15010KT 31/19 A2971 RMK A01 T03060186  RH  049%=      5-min Rain = 0
KCO3 242107Z 14009KT 30/19 A2971 RMK A01 T03040186  RH  049%=      5-min Rain = 0
KCO3 242108Z 15011G16KT 30/19 A2971 RMK A01 T03030188  RH  050%=      5-min Rain = 0
KCO3 242109Z 16012KT 31/19 A2971 RMK A01 T03060187  RH  049%=      5-min Rain = 0
KCO3 242110Z 17008KT 31/19 A2971 RMK A01 T03060188  RH  049%=      5-min Rain = 0
KCO3 242111Z 18011KT 31/19 A2971 RMK A01 T03070186  RH  048%=      5-min Rain = 0
KCO3 242112Z 17011KT 31/19 A2971 RMK A01 T03060186  RH  049%=      5-min Rain = 0
KCO3 242113Z 17010G15KT 31/19 A2971 RMK A01 T03060186  RH  049%=      5-min Rain = 0
KCO3 242114Z 17010KT 31/19 A2971 RMK A01 T03090187  RH  048%=      5-min Rain = 0
KCO3 242115Z 17010KT 31/19 A2971 RMK A01 T03120188  RH  048%=      5-min Rain = 0
KCO3 242116Z 16009KT 32/19 A2971 RMK A01 T03150189  RH  047%=      5-min Rain = 0
KCO3 242117Z 15010KT 31/19 A2971 RMK A01 T03140186  RH  047%=      5-min Rain = 0
KCO3 242118Z 16008KT 31/19 A2971 RMK A01 T03110186  RH  047%=      5-min Rain = 0
KCO3 242119Z 15008G13KT 31/19 A2971 RMK A01 T03100188  RH  048%=      5-min Rain = 0
KCO3 242120Z 16009KT 31/19 A2971 RMK A01 T03120189  RH  048%=      5-min Rain = 0
KCO3 242121Z 15010G15KT 32/19 A2971 RMK A01 T03150191  RH  048%=      5-min Rain = 0
KCO3 242122Z 17011KT 32/19 A2971 RMK A01 T03190190  RH  047%=      5-min Rain = 0
KCO3 242123Z 17010KT 32/19 A2971 RMK A01 T03200188  RH  046%=      5-min Rain = 0
KCO3 242124Z 16008KT 32/19 A2971 RMK A01 T03170188  RH  046%=      5-min Rain = 0
KCO3 242125Z 16007KT 32/19 A2971 RMK A01 T03160187  RH  046%=      5-min Rain = 0
KCO3 242126Z 14008KT 32/19 A2971 RMK A01 T03150187  RH  047%=      5-min Rain = 0
KCO3 242127Z 14009KT 31/19 A2971 RMK A01 T03140191  RH  048%=      5-min Rain = 0
KCO3 242128Z 16008G13KT 32/19 A2971 RMK A01 T03170192  RH  047%=      5-min Rain = 0
KCO3 242129Z 14013KT 32/19 A2971 RMK A01 T03190190  RH  046%=      5-min Rain = 0
KCO3 242130Z 15014KT 32/19 A2971 RMK A01 T03200187  RH  045%=      5-min Rain = 0
KCO3 242131Z 16010KT 32/19 A2971 RMK A01 T03190188  RH  046%=      5-min Rain = 0
KCO3 242132Z 17007KT 32/19 A2971 RMK A01 T03190187  RH  045%=      5-min Rain = 0
KCO3 242133Z 18007G14KT 32/19 A2971 RMK A01 T03190189  RH  046%=      5-min Rain = 0
KCO3 242134Z 17009KT 32/19 A2971 RMK A01 T03210188  RH  045%=      5-min Rain = 0
KCO3 242135Z 17010KT 32/19 A2971 RMK A01 T03210188  RH  045%=      5-min Rain = 0
KCO3 242136Z 20012KT 32/19 A2971 RMK A01 T03200187  RH  045%=      5-min Rain = 0
KCO3 242137Z 19007KT 32/19 A2971 RMK A01 T03190187  RH  046%=      5-min Rain = 0
KCO3 242138Z 21006KT 32/19 A2971 RMK A01 T03210191  RH  046%=      5-min Rain = 0
KCO3 242139Z 20009KT 32/19 A2971 RMK A01 T03230188  RH  045%=      5-min Rain = 0
KCO3 242140Z 20010KT 32/19 A2971 RMK A01 T03200185  RH  045%=      5-min Rain = 0
KCO3 242141Z 18008KT 32/19 A2971 RMK A01 T03160185  RH  046%=      5-min Rain = 0
KCO3 242142Z 16009KT 31/19 A2971 RMK A01 T03130187  RH  047%=      5-min Rain = 0
KCO3 242143Z 15011KT 31/19 A2971 RMK A01 T03110187  RH  048%=      5-min Rain = 0
KCO3 242144Z 16009KT 31/19 A2971 RMK A01 T03090186  RH  048%=      5-min Rain = 0
KCO3 242145Z 16008KT 31/19 A2971 RMK A01 T03070186  RH  048%=      5-min Rain = 0
KCO3 242146Z 16008KT 31/19 A2971 RMK A01 T03070186  RH  049%=      5-min Rain = 0
KCO3 242147Z 16007KT 31/19 A297 RMK A01 T03070187  RH  049%=      5-min Rain = 0
KCO3 242148Z 16008KT 31/19 A297 RMK A01 T03090187  RH  048%=      5-min Rain = 0
KCO3 242149Z 16005KT 31/19 A297 RMK A01 T03120190  RH  048%=      5-min Rain = 0
KCO3 242150Z 18006G11KT 32/19 A297 RMK A01 T03160191  RH  047%=      5-min Rain = 0
KCO3 242151Z 18007KT 32/19 A297 RMK A01 T03160188  RH  047%=      5-min Rain = 0
KCO3 242152Z 16010KT 32/19 A297 RMK A01 T03160189  RH  047%=      5-min Rain = 0
KCO3 242153Z 18007KT 32/19 A297 RMK A01 T03170191  RH  047%=      5-min Rain = 0
KCO3 242154Z 18007KT 32/19 A297 RMK A01 T03200189  RH  046%=      5-min Rain = 0
KCO3 242155Z 17004KT 32/19 A297 RMK A01 T03210192  RH  046%=      5-min Rain = 0
KCO3 242156Z 17007KT 32/19 A2969 RMK A01 T03220191  RH  046%=      5-min Rain = 0
KCO3 242157Z 17006KT 32/19 A2969 RMK A01 T03210188  RH  045%=      5-min Rain = 0
KCO3 242158Z 16007KT 32/19 A2969 RMK A01 T03170187  RH  046%=      5-min Rain = 0
KCO3 242159Z 18009KT 32/19 A2969 RMK A01 T03150188  RH  047%=      5-min Rain = 0
KCO3 242200Z 17010KT 31/19 A2969 RMK A01 T03130185  RH  047%=      5-min Rain = 0
KCO3 242201Z 18007KT 31/19 A2969 RMK A01 T03110186  RH  047%=      5-min Rain = 0
KCO3 242202Z 18006G11KT 31/19 A2969 RMK A01 T03130188  RH  047%=      5-min Rain = 0
KCO3 242203Z 18009KT 32/18 A2969 RMK A01 T03160184  RH  045%=      5-min Rain = 0
KCO3 242204Z 17008G13KT 32/19 A2969 RMK A01 T03170185  RH  046%=      5-min Rain = 0
KCO3 242205Z 18009KT 32/19 A2969 RMK A01 T03170185  RH  046%=      5-min Rain = 0
KCO3 242206Z 18009KT 31/18 A2969 RMK A01 T03140182  RH  045%=      5-min Rain = 0
KCO3 242207Z 18005KT 31/18 A2968 RMK A01 T03100182  RH  047%=      5-min Rain = 0
KCO3 242208Z 16007KT 31/18 A2968 RMK A01 T03080183  RH  047%=      5-min Rain = 0
KCO3 242209Z 16006KT 31/18 A2968 RMK A01 T03090184  RH  047%=      5-min Rain = 0
KCO3 242210Z 18004KT 31/19 A2968 RMK A01 T03110188  RH  048%=      5-min Rain = 0
KCO3 242211Z 16005G10KT 32/19 A2968 RMK A01 T03150187  RH  047%=      5-min Rain = 0
KCO3 242212Z 17005KT 32/19 A2968 RMK A01 T03160186  RH  046%=      5-min Rain = 0
KCO3 242213Z 16006KT 32/19 A2968 RMK A01 T03150189  RH  047%=      5-min Rain = 0
KCO3 242214Z 16009G15KT 32/19 A2968 RMK A01 T03170190  RH  047%=      5-min Rain = 0
KCO3 242215Z 17009G14KT 32/19 A2968 RMK A01 T03190188  RH  046%=      5-min Rain = 0
KCO3 242216Z 19008KT 32/19 A2968 RMK A01 T03200189  RH  046%=      5-min Rain = 0
KCO3 242217Z 18007KT 32/19 A2968 RMK A01 T03210188  RH  045%=      5-min Rain = 0
KCO3 242218Z 20007KT 32/19 A2968 RMK A01 T03220188  RH  045%=      5-min Rain = 0
KCO3 242219Z 18009KT 32/19 A2967 RMK A01 T03220187  RH  045%=      5-min Rain = 0
KCO3 242220Z 18008KT 32/19 A2967 RMK A01 T03210188  RH  045%=      5-min Rain = 0
KCO3 242221Z 16007KT 32/19 A2967 RMK A01 T03220190  RH  046%=      5-min Rain = 0
KCO3 242222Z 16009G17KT 32/19 A2967 RMK A01 T03220187  RH  045%=      5-min Rain = 0
KCO3 242223Z 16013KT 32/18 A2967 RMK A01 T03210182  RH  044%=      5-min Rain = 0
KCO3 242224Z 16011KT 32/18 A2967 RMK A01 T03190184  RH  045%=      5-min Rain = 0
KCO3 242225Z 15008KT 32/19 A2967 RMK A01 T03180185  RH  045%=      5-min Rain = 0
KCO3 242226Z 15008KT 32/19 A2967 RMK A01 T03200187  RH  045%=      5-min Rain = 0
KCO3 242227Z 14007KT 32/18 A2967 RMK A01 T03210183  RH  044%=      5-min Rain = 0
KCO3 242228Z 17008KT 32/19 A2967 RMK A01 T03200185  RH  045%=      5-min Rain = 0
KCO3 242229Z 17007KT 32/19 A2967 RMK A01 T03210186  RH  045%=      5-min Rain = 0
KCO3 242230Z 15007KT 32/19 A2966 RMK A01 T03210188  RH  045%=      5-min Rain = 0
KCO3 242231Z 15010KT 32/19 A2966 RMK A01 T03210186  RH  045%=      5-min Rain = 0
KCO3 242232Z 15011KT 32/19 A2966 RMK A01 T03220185  RH  044%=      5-min Rain = 0
KCO3 242233Z 17010KT 32/19 A2966 RMK A01 T03210185  RH  044%=      5-min Rain = 0
KCO3 242234Z 17009KT 32/18 A2966 RMK A01 T03210184  RH  044%=      5-min Rain = 0
KCO3 242235Z 16008KT 32/18 A2966 RMK A01 T03200184  RH  045%=      5-min Rain = 0
KCO3 242236Z 18006KT 32/18 A2966 RMK A01 T03200184  RH  045%=      5-min Rain = 0
KCO3 242237Z 16006KT 32/19 A2966 RMK A01 T03190185  RH  045%=      5-min Rain = 0
KCO3 242238Z 16005KT 32/18 A2966 RMK A01 T03190184  RH  045%=      5-min Rain = 0
KCO3 242239Z 16005KT 32/19 A2966 RMK A01 T03190186  RH  045%=      5-min Rain = 0
KCO3 242240Z 17006KT 32/19 A2966 RMK A01 T03190188  RH  046%=      5-min Rain = 0
KCO3 242241Z 17006KT 32/19 A2966 RMK A01 T03210186  RH  045%=      5-min Rain = 0
KCO3 242242Z 16004KT 32/19 A2966 RMK A01 T03210189  RH  045%=      5-min Rain = 0
KCO3 242243Z 17009G14KT 32/19 A2965 RMK A01 T03220187  RH  045%=      5-min Rain = 0
KCO3 242244Z 16009KT 32/19 A2965 RMK A01 T03220187  RH  045%=      5-min Rain = 0
KCO3 242245Z 15007KT 32/19 A2965 RMK A01 T03210187  RH  045%=      5-min Rain = 0
KCO3 242246Z 14010G15KT 32/19 A2965 RMK A01 T03200186  RH  045%=      5-min Rain = 0
KCO3 242247Z 12011KT 32/19 A2965 RMK A01 T03190185  RH  045%=      5-min Rain = 0
KCO3 242248Z 12010KT 32/19 A2965 RMK A01 T03170185  RH  046%=      5-min Rain = 0
KCO3 242249Z 14009KT 32/19 A2965 RMK A01 T03160185  RH  046%=      5-min Rain = 0
KCO3 242250Z 14007KT 32/19 A2965 RMK A01 T03150186  RH  047%=      5-min Rain = 0
KCO3 242251Z 14009G14KT 32/19 A2965 RMK A01 T03150186  RH  046%=      5-min Rain = 0
KCO3 242252Z 14009KT 32/18 A2965 RMK A01 T03150184  RH  046%=      5-min Rain = 0
KCO3 242253Z 15007KT 32/19 A2965 RMK A01 T03170187  RH  046%=      5-min Rain = 0
KCO3 242254Z 16009KT 32/19 A2965 RMK A01 T03190187  RH  045%=      5-min Rain = 0
KCO3 242255Z 15010KT 32/19 A2965 RMK A01 T03200185  RH  045%=      5-min Rain = 0
KCO3 242256Z 15009G14KT 32/19 A2965 RMK A01 T03190187  RH  045%=      5-min Rain = 0
KCO3 242257Z 14007KT 32/19 A2965 RMK A01 T03200185  RH  045%=      5-min Rain = 0
KCO3 242258Z 15007KT 32/19 A2965 RMK A01 T03200185  RH  045%=      5-min Rain = 0
KCO3 242259Z 14007KT 32/19 A2965 RMK A01 T03190187  RH  045%=      5-min Rain = 0
KCO3 242300Z 14007KT 32/19 A2965 RMK A01 T03200188  RH  046%=      5-min Rain = 0
KCO3 242301Z 13010KT 32/19 A2965 RMK A01 T03210186  RH  045%=      5-min Rain = 0
KCO3 242302Z 14009G14KT 32/19 A2965 RMK A01 T03220186  RH  044%=      5-min Rain = 0
KCO3 242303Z 14014G20KT 32/18 A2965 RMK A01 T03220183  RH  044%=      5-min Rain = 0
KCO3 242304Z 13014KT 32/18 A2965 RMK A01 T03220182  RH  044%=      5-min Rain = 0
KCO3 242305Z 15010G15KT 32/18 A2965 RMK A01 T03210184  RH  044%=      5-min Rain = 0
KCO3 242306Z 15011KT 32/18 A2965 RMK A01 T03210183  RH  044%=      5-min Rain = 0
KCO3 242307Z 16009G14KT 32/18 A2965 RMK A01 T03220184  RH  044%=      5-min Rain = 0
KCO3 242308Z 15011KT 32/18 A2964 RMK A01 T03220184  RH  044%=      5-min Rain = 0
KCO3 242309Z 15010G15KT 32/19 A2964 RMK A01 T03220186  RH  045%=      5-min Rain = 0
KCO3 242310Z 14011KT 32/18 A2964 RMK A01 T03230184  RH  044%=      5-min Rain = 0
KCO3 242311Z 14012KT 32/18 A2964 RMK A01 T03220184  RH  044%=      5-min Rain = 0
KCO3 242312Z 14011KT 32/18 A2964 RMK A01 T03210184  RH  044%=      5-min Rain = 0
KCO3 242313Z 14010G15KT 32/18 A2964 RMK A01 T03210184  RH  044%=      5-min Rain = 0
KCO3 242314Z 14011G16KT 32/18 A2964 RMK A01 T03210184  RH  044%=      5-min Rain = 0
KCO3 242315Z 14011KT 32/18 A2964 RMK A01 T03220182  RH  044%=      5-min Rain = 0
KCO3 242316Z 13009KT 32/18 A2964 RMK A01 T03220183  RH  044%=      5-min Rain = 0
KCO3 242317Z 13010G15KT 32/19 A2964 RMK A01 T03220186  RH  044%=      5-min Rain = 0
KCO3 242318Z 14010KT 32/19 A2965 RMK A01 T03230186  RH  044%=      5-min Rain = 0
KCO3 242319Z 13011KT 32/19 A2965 RMK A01 T03230187  RH  044%=      5-min Rain = 0
KCO3 242320Z 13013KT 32/19 A2965 RMK A01 T03230186  RH  044%=      5-min Rain = 0
KCO3 242321Z 14011G16KT 32/19 A2965 RMK A01 T03220186  RH  045%=      5-min Rain = 0
KCO3 242322Z 16012KT 32/19 A2965 RMK A01 T03230188  RH  045%=      5-min Rain = 0
KCO3 242323Z 15013G18KT 32/19 A2965 RMK A01 T03230185  RH  044%=      5-min Rain = 0
KCO3 242324Z 15013G19KT 32/19 A2965 RMK A01 T03210185  RH  044%=      5-min Rain = 0
KCO3 242325Z 14013KT 32/18 A2965 RMK A01 T03200184  RH  044%=      5-min Rain = 0
KCO3 242326Z 14013KT 32/18 A2965 RMK A01 T03180184  RH  045%=      5-min Rain = 0
KCO3 242327Z 13011KT 32/18 A2965 RMK A01 T03160184  RH  045%=      5-min Rain = 0
KCO3 242328Z 14008KT 31/19 A2964 RMK A01 T03140185  RH  046%=      5-min Rain = 0
KCO3 242329Z 14008KT 31/19 A2964 RMK A01 T03140187  RH  047%=      5-min Rain = 0
KCO3 242330Z 15009KT 31/19 A2964 RMK A01 T03130186  RH  047%=      5-min Rain = 0
KCO3 242331Z 14011G16KT 31/19 A2964 RMK A01 T03120186  RH  047%=      5-min Rain = 0
KCO3 242332Z 14011KT 31/18 A2964 RMK A01 T03110184  RH  047%=      5-min Rain = 0
KCO3 242333Z 14008KT 31/19 A2964 RMK A01 T03110186  RH  047%=      5-min Rain = 0
KCO3 242334Z 15009KT 31/19 A2964 RMK A01 T03130187  RH  047%=      5-min Rain = 0
KCO3 242335Z 14009KT 32/19 A2964 RMK A01 T03150187  RH  047%=      5-min Rain = 0
KCO3 242336Z 15011KT 32/19 A2964 RMK A01 T03170188  RH  046%=      5-min Rain = 0
KCO3 242337Z 15009KT 32/19 A2964 RMK A01 T03190189  RH  046%=      5-min Rain = 0
KCO3 242338Z 14010G16KT 32/19 A2964 RMK A01 T03210190  RH  046%=      5-min Rain = 0
KCO3 242339Z 14010G15KT 32/19 A2964 RMK A01 T03220187  RH  045%=      5-min Rain = 0
KCO3 242340Z 13010KT 32/19 A2964 RMK A01 T03230187  RH  045%=      5-min Rain = 0
KCO3 242341Z 12011KT 32/19 A2964 RMK A01 T03230187  RH  044%=      5-min Rain = 0
KCO3 242342Z 13013G18KT 32/19 A2964 RMK A01 T03220187  RH  045%=      5-min Rain = 0
KCO3 242343Z 12016G21KT 32/18 A2964 RMK A01 T03190184  RH  045%=      5-min Rain = 0
KCO3 242344Z 14016G22KT 32/18 A2964 RMK A01 T03170184  RH  045%=      5-min Rain = 0
KCO3 242345Z 13014G19KT 32/18 A2964 RMK A01 T03160183  RH  045%=      5-min Rain = 0
KCO3 242346Z 13009KT 31/19 A2964 RMK A01 T03140185  RH  046%=      5-min Rain = 0
KCO3 242347Z 13009KT 31/19 A2964 RMK A01 T03140186  RH  047%=      5-min Rain = 0
KCO3 242348Z 13010G16KT 31/19 A2964 RMK A01 T03130186  RH  047%=      5-min Rain = 0
KCO3 242349Z 13012KT 31/18 A2964 RMK A01 T03130184  RH  046%=      5-min Rain = 0
KCO3 242350Z 13011KT 31/18 A2964 RMK A01 T03120183  RH  046%=      5-min Rain = 0
KCO3 242351Z 13011KT 31/18 A2964 RMK A01 T03110182  RH  046%=      5-min Rain = 0
KCO3 242352Z 13011KT 31/18 A2964 RMK A01 T03100181  RH  046%=      5-min Rain = 0
KCO3 242353Z 13011KT 31/18 A2964 RMK A01 T03100182  RH  046%=      5-min Rain = 0
KCO3 242354Z 12008KT 31/18 A2964 RMK A01 T03090183  RH  047%=      5-min Rain = 0
KCO3 242355Z 13011G17KT 31/18 A2964 RMK A01 T03090184  RH  047%=      5-min Rain = 0
KCO3 242356Z 12014G19KT 31/18 A2964 RMK A01 T03080182  RH  047%=      5-min Rain = 0
KCO3 242357Z 12010KT 31/18 A2964 RMK A01 T03080182  RH  047%=      5-min Rain = 0
KCO3 242358Z 12011G16KT 31/18 A2964 RMK A01 T03080183  RH  047%=      5-min Rain = 0
KCO3 242359Z 12009G14KT 31/18 A2964 RMK A01 T03070183  RH  047%=      5-min Rain = 0
KCO3 250000Z 12013G19KT 31/18 A2964 RMK A01 T03070183  RH  047%=      5-min Rain = 0
KCO3 250001Z 12013G18KT 31/18 A2964 RMK A01 T03070182  RH  047%=      5-min Rain = 0
KCO3 250002Z 12013KT 31/18 A2964 RMK A01 T03060182  RH  047%=      5-min Rain = 0
KCO3 250003Z 12011KT 31/18 A2964 RMK A01 T03060182  RH  048%=      5-min Rain = 0
KCO3 250004Z 12009KT 31/18 A2964 RMK A01 T03060183  RH  048%=      5-min Rain = 0
KCO3 250005Z 13011KT 31/18 A2964 RMK A01 T03050183  RH  048%=      5-min Rain = 0
KCO3 250006Z 13010KT 31/18 A2964 RMK A01 T03050183  RH  048%=      5-min Rain = 0
KCO3 250007Z 13009G14KT 31/18 A2963 RMK A01 T03050183  RH  048%=      5-min Rain = 0
KCO3 250008Z 13008KT 31/18 A2963 RMK A01 T03050183  RH  048%=      5-min Rain = 0
KCO3 250009Z 13007KT 30/18 A2963 RMK A01 T03040184  RH  049%=      5-min Rain = 0
KCO3 250010Z 13009KT 30/18 A2963 RMK A01 T03040184  RH  049%=      5-min Rain = 0
KCO3 250011Z 12008KT 30/18 A2963 RMK A01 T03040184  RH  049%=      5-min Rain = 0
KCO3 250012Z 12010KT 30/18 A2963 RMK A01 T03040183  RH  049%=      5-min Rain = 0
KCO3 250013Z 12010KT 30/18 A2963 RMK A01 T03040183  RH  048%=      5-min Rain = 0
KCO3 250014Z 13010KT 30/18 A2963 RMK A01 T03040183  RH  049%=      5-min Rain = 0
KCO3 250015Z 12009KT 30/18 A2963 RMK A01 T03040183  RH  049%=      5-min Rain = 0
KCO3 250016Z 12009KT 30/18 A2963 RMK A01 T03040183  RH  048%=      5-min Rain = 0
KCO3 250017Z 12008KT 30/18 A2963 RMK A01 T03040183  RH  048%=      5-min Rain = 0
KCO3 250018Z 12007KT 30/18 A2963 RMK A01 T03030182  RH  048%=      5-min Rain = 0
KCO3 250019Z 12010G16KT 30/18 A2963 RMK A01 T03030182  RH  048%=      5-min Rain = 0
KCO3 250020Z 12010G16KT 30/18 A2963 RMK A01 T03030177  RH  047%=      5-min Rain = 0
KCO3 250021Z 12009KT 30/18 A2963 RMK A01 T03030178  RH  047%=      5-min Rain = 0
KCO3 250022Z 12010KT 30/18 A2962 RMK A01 T03030176  RH  047%=      5-min Rain = 0
KCO3 250023Z 11009KT 30/18 A2962 RMK A01 T03030176  RH  046%=      5-min Rain = 0
KCO3 250024Z 11011KT 30/18 A2962 RMK A01 T03030176  RH  046%=      5-min Rain = 0
KCO3 250025Z 12012KT 30/18 A2962 RMK A01 T03030175  RH  046%=      5-min Rain = 0
KCO3 250026Z 11007KT 30/18 A2962 RMK A01 T03030176  RH  046%=      5-min Rain = 0
KCO3 250027Z 11008KT 30/18 A2962 RMK A01 T03030177  RH  047%=      5-min Rain = 0
KCO3 250028Z 11010KT 30/18 A2962 RMK A01 T03030176  RH  047%=      5-min Rain = 0
KCO3 250029Z 12009KT 30/18 A2962 RMK A01 T03030177  RH  047%=      5-min Rain = 0
KCO3 250030Z 12009KT 30/18 A2962 RMK A01 T03030177  RH  047%=      5-min Rain = 0
KCO3 250031Z 12010KT 30/18 A2962 RMK A01 T03020178  RH  047%=      5-min Rain = 0
KCO3 250032Z 12009KT 30/18 A2962 RMK A01 T03020177  RH  047%=      5-min Rain = 0
KCO3 250033Z 12007KT 30/18 A2962 RMK A01 T03020178  RH  047%=      5-min Rain = 0
KCO3 250034Z 12007KT 30/18 A2962 RMK A01 T03010179  RH  048%=      5-min Rain = 0
KCO3 250035Z 12007KT 30/18 A2962 RMK A01 T03000179  RH  048%=      5-min Rain = 0
KCO3 250036Z 12008KT 30/18 A2962 RMK A01 T03000178  RH  048%=      5-min Rain = 0
KCO3 250037Z 13007KT 30/18 A2962 RMK A01 T03000179  RH  048%=      5-min Rain = 0
KCO3 250038Z 13008KT 30/18 A2962 RMK A01 T02990180  RH  049%=      5-min Rain = 0
KCO3 250039Z 13007KT 30/18 A2962 RMK A01 T02990181  RH  049%=      5-min Rain = 0
KCO3 250040Z 13006KT 30/18 A2962 RMK A01 T02980182  RH  050%=      5-min Rain = 0
KCO3 250041Z 13008KT 30/18 A2962 RMK A01 T02970181  RH  050%=      5-min Rain = 0
KCO3 250042Z 12008KT 30/18 A2962 RMK A01 T02970181  RH  050%=      5-min Rain = 0
KCO3 250043Z 12007KT 30/18 A2962 RMK A01 T02970181  RH  050%=      5-min Rain = 0
KCO3 250044Z 12009KT 30/18 A2963 RMK A01 T02970182  RH  050%=      5-min Rain = 0
KCO3 250045Z 11010KT 30/18 A2963 RMK A01 T02960181  RH  050%=      5-min Rain = 0
KCO3 250046Z 12012KT 30/18 A2963 RMK A01 T02960181  RH  050%=      5-min Rain = 0
KCO3 250047Z 11010G15KT 30/18 A2963 RMK A01 T02970183  RH  051%=      5-min Rain = 0
KCO3 250048Z 12011KT 30/18 A2963 RMK A01 T02960184  RH  051%=      5-min Rain = 0
KCO3 250049Z 11012G17KT 30/19 A2963 RMK A01 T02960185  RH  051%=      5-min Rain = 0
KCO3 250050Z 11015G21KT 30/19 A2963 RMK A01 T02950185  RH  052%=      5-min Rain = 0
KCO3 250051Z 12016KT 30/19 A2963 RMK A01 T02950186  RH  052%=      5-min Rain = 0
KCO3 250052Z 11013KT 30/19 A2963 RMK A01 T02950186  RH  052%=      5-min Rain = 0
KCO3 250053Z 12015G20KT 29/19 A2963 RMK A01 T02940187  RH  052%=      5-min Rain = 0
KCO3 250054Z 11013KT 29/19 A2962 RMK A01 T02940187  RH  053%=      5-min Rain = 0
KCO3 250055Z 11012G18KT 29/19 A2962 RMK A01 T02930188  RH  053%=      5-min Rain = 0
KCO3 250056Z 11010G17KT 29/19 A2962 RMK A01 T02930188  RH  053%=      5-min Rain = 0
KCO3 250057Z 11011G17KT 29/19 A2962 RMK A01 T02920188  RH  053%=      5-min Rain = 0
KCO3 250058Z 12017G33KT 29/19 A2962 RMK A01 T02920188  RH  053%=      5-min Rain = 0
KCO3 250059Z 12027G35KT 29/19 A2962 RMK A01 T02910189  RH  054%=      5-min Rain = 0
KCO3 250100Z 12028G43KT 29/19 A2963 RMK A01 T02860190  RH  056%=      5-min Rain = 0
KCO3 250101Z 12025G37KT 28/19 A2963 RMK A01 T02780189  RH  058%=      5-min Rain = 0
KCO3 250102Z 12025G39KT 27/19 A2963 RMK A01 T02720189  RH  061%=      5-min Rain = 0
KCO3 250103Z 12030G40KT 27/19 A2964 RMK A01 T02680189  RH  062%=      5-min Rain = 0
KCO3 250104Z 12028G40KT 27/19 A2964 RMK A01 T02650188  RH  063%=      5-min Rain = 0
KCO3 250105Z 12030G38KT 26/19 A2964 RMK A01 T02620188  RH  064%=      5-min Rain = 0
KCO3 250106Z 12024G35KT 26/19 A2965 RMK A01 T02600187  RH  064%=      5-min Rain = 0
KCO3 250107Z 13024G30KT 26/19 A2965 RMK A01 T02580188  RH  065%=      5-min Rain = 0
KCO3 250108Z 13026G31KT 26/19 A2966 RMK A01 T02570188  RH  065%=      5-min Rain = 0
KCO3 250109Z 13028G35KT 26/19 A2966 RMK A01 T02560187  RH  066%=      5-min Rain = 0
KCO3 250110Z 13022G30KT 26/19 A2966 RMK A01 T02550188  RH  066%=      5-min Rain = 0
KCO3 250111Z 13024G35KT 25/19 A2967 RMK A01 T02540187  RH  066%=      5-min Rain = 0
KCO3 250112Z 13027G33KT 25/19 A2967 RMK A01 T02540187  RH  066%=      5-min Rain = 0
KCO3 250113Z 13022G30KT 25/19 A2967 RMK A01 T02530187  RH  067%=      5-min Rain = 0
KCO3 250114Z 12020G30KT 25/19 A2967 RMK A01 T02530187  RH  067%=      5-min Rain = 0
KCO3 250115Z 13017G22KT 25/19 A2967 RMK A01 T02520187  RH  067%=      5-min Rain = 0
KCO3 250116Z 12013G19KT 25/19 A2967 RMK A01 T02520187  RH  067%=      5-min Rain = 0
KCO3 250117Z 13017G24KT 25/19 A2967 RMK A01 T02510187  RH  067%=      5-min Rain = 0
KCO3 250118Z 13013G18KT 25/19 A2967 RMK A01 T02510187  RH  068%=      5-min Rain = 0
KCO3 250119Z 12017G23KT 25/19 A2967 RMK A01 T02510187  RH  068%=      5-min Rain = 0
KCO3 250120Z 12015G24KT 25/19 A2967 RMK A01 T02500187  RH  068%=      5-min Rain = 0
KCO3 250121Z 12014G20KT 25/19 A2967 RMK A01 T02500187  RH  068%=      5-min Rain = 0
KCO3 250122Z 13017G25KT 25/19 A2967 RMK A01 T02500187  RH  068%=      5-min Rain = 0
KCO3 250123Z 13016G21KT 25/19 A2967 RMK A01 T02500187  RH  068%=      5-min Rain = 0
KCO3 250124Z 13015G20KT 25/19 A2967 RMK A01 T02490187  RH  069%=      5-min Rain = 0
KCO3 250125Z 13016G24KT 25/19 A2967 RMK A01 T02490187  RH  069%=      5-min Rain = 0
KCO3 250126Z 13014G19KT 25/19 A2967 RMK A01 T02490187  RH  069%=      5-min Rain = 0
KCO3 250127Z 13013KT 25/19 A2967 RMK A01 T02480188  RH  069%=      5-min Rain = 0
KCO3 250128Z 12012G17KT 25/19 A2967 RMK A01 T02480188  RH  069%=      5-min Rain = 0
KCO3 250129Z 13014G22KT 25/19 A2967 RMK A01 T02480187  RH  069%=      5-min Rain = 0
KCO3 250130Z 13016G24KT 25/19 A2966 RMK A01 T02480186  RH  069%=      5-min Rain = 0
KCO3 250131Z 13015G22KT 25/19 A2966 RMK A01 T02480186  RH  068%=      5-min Rain = 0
KCO3 250132Z 13016G22KT 25/19 A2966 RMK A01 T02480185  RH  068%=      5-min Rain = 0
KCO3 250133Z 13013G21KT 25/19 A2966 RMK A01 T02480186  RH  068%=      5-min Rain = 0
KCO3 250134Z 13014G26KT 25/19 A2967 RMK A01 T02480186  RH  068%=      5-min Rain = 0
KCO3 250135Z 13018G28KT 25/19 A2966 RMK A01 T02480185  RH  068%=      5-min Rain = 0
KCO3 250136Z 13016G25KT 25/18 A2966 RMK A01 T02480184  RH  068%=      5-min Rain = 0
KCO3 250137Z 13014KT 25/18 A2966 RMK A01 T02480184  RH  068%=      5-min Rain = 0
KCO3 250138Z 13016G23KT 25/18 A2967 RMK A01 T02480184  RH  068%=      5-min Rain = 0
KCO3 250139Z 13017G22KT 25/18 A2967 RMK A01 T02470184  RH  068%=      5-min Rain = 0
KCO3 250140Z 13019G27KT 25/18 A2967 RMK A01 T02470184  RH  068%=      5-min Rain = 0
KCO3 250141Z 13014G21KT 25/18 A2967 RMK A01 T02470184  RH  068%=      5-min Rain = 0
KCO3 250142Z 14014G21KT 25/18 A2967 RMK A01 T02470184  RH  068%=      5-min Rain = 0
KCO3 250143Z 13017KT 25/18 A2967 RMK A01 T02460184  RH  068%=      5-min Rain = 0
KCO3 250144Z 14015G20KT 25/18 A2967 RMK A01 T02460184  RH  069%=      5-min Rain = 0
KCO3 250145Z 13014G21KT 25/18 A2967 RMK A01 T02450184  RH  069%=      5-min Rain = 0
KCO3 250146Z 13014G20KT 25/18 A2967 RMK A01 T02450184  RH  069%=      5-min Rain = 0
KCO3 250147Z 13011G17KT 25/19 A2968 RMK A01 T02450185  RH  069%=      5-min Rain = 0
KCO3 250148Z 13013G19KT 24/19 A2968 RMK A01 T02440185  RH  069%=      5-min Rain = 0
KCO3 250149Z 14011KT 24/19 A2968 RMK A01 T02440185  RH  070%=      5-min Rain = 0
KCO3 250150Z 14012KT 24/19 A2968 RMK A01 T02440185  RH  070%=      5-min Rain = 0
KCO3 250151Z 14011G16KT 24/19 A2968 RMK A01 T02430185  RH  070%=      5-min Rain = 0
KCO3 250152Z 14015KT 24/19 A2969 RMK A01 T02430185  RH  070%=      5-min Rain = 0
KCO3 250153Z 14016G21KT 24/19 A2969 RMK A01 T02430185  RH  070%=      5-min Rain = 0
KCO3 250154Z 14010G15KT 24/19 A297 RMK A01 T02430185  RH  070%=      5-min Rain = 0
KCO3 250155Z 15011G16KT 24/19 A297 RMK A01 T02430185  RH  070%=      5-min Rain = 0
KCO3 250156Z 15012KT 24/19 A297 RMK A01 T02430186  RH  070%=      5-min Rain = 0
KCO3 250157Z 15010KT 24/19 A2971 RMK A01 T02420186  RH  071%=      5-min Rain = 0
KCO3 250158Z 15007G12KT 24/19 A2971 RMK A01 T02420186  RH  071%=      5-min Rain = 0
KCO3 250159Z 15011KT 24/19 A2972 RMK A01 T02420186  RH  071%=      5-min Rain = 0
KCO3 250200Z 16008G13KT 24/19 A2972 RMK A01 T02420186  RH  071%=      5-min Rain = 0
KCO3 250201Z 15008KT 24/19 A2972 RMK A01 T02420186  RH  071%=      5-min Rain = 0
KCO3 250202Z 16008KT 24/19 A2973 RMK A01 T02420186  RH  071%=      5-min Rain = 0
KCO3 250203Z 16010KT 24/19 A2973 RMK A01 T02410186  RH  071%=      5-min Rain = 0
KCO3 250204Z 15011KT 24/19 A2973 RMK A01 T02410186  RH  071%=      5-min Rain = 0
KCO3 250205Z 16010KT 24/19 A2973 RMK A01 T02410186  RH  071%=      5-min Rain = 0
KCO3 250206Z 17009KT 24/19 A2974 RMK A01 T02410186  RH  071%=      5-min Rain = 0
KCO3 250207Z 21008KT 24/19 A2975 RMK A01 T02410186  RH  071%=      5-min Rain = 0
KCO3 250208Z 22009KT 24/19 A2976 RMK A01 T02410187  RH  072%=      5-min Rain = 0
KCO3 250209Z 23013G20KT 24/19 A2977 RMK A01 T02410187  RH  072%=      5-min Rain = 0
KCO3 250210Z 25011G21KT 24/19 A2978 RMK A01 T02410187  RH  072%=      5-min Rain = 0
KCO3 250211Z 25015G28KT 24/18 A2979 RMK A01 T02410175  RH  067%=      5-min Rain = 0
KCO3 250212Z 25014G26KT 23/15 A2978 RMK A01 T02330146  RH  058%=      5-min Rain = 0
KCO3 250213Z 26013G21KT 22/14 A2978 RMK A01 T02230139  RH  059%=      5-min Rain = 0
KCO3 250214Z 26011G18KT 22/14 A2978 RMK A01 T02180137  RH  060%=      5-min Rain = 0
KCO3 250215Z 27016G27KT 22/13 A2978 RMK A01 T02160134  RH  060%=      5-min Rain = 0
KCO3 250216Z 27014G21KT 21/14 A2978 RMK A01 T02130135  RH  061%=      5-min Rain = 0
KCO3 250217Z 25010KT 21/14 A2978 RMK A01 T02100137  RH  063%=      5-min Rain = 0
KCO3 250218Z 25017G29KT 21/14 A2978 RMK A01 T02070138  RH  065%=      5-min Rain = 0
KCO3 250219Z 25012G20KT 20/14 A2978 RMK A01 T02020140  RH  067%=      5-min Rain = 0
KCO3 250220Z 24009G14KT 20/14 A2978 RMK A01 T01980142  RH  070%=      5-min Rain = 0
KCO3 250221Z 25010G18KT 20/14 A2979 RMK A01 T01950144  RH  072%=      5-min Rain = 0
KCO3 250222Z 24010G17KT 19/15 A2979 RMK A01 T01910147  RH  076%=      5-min Rain = 0
KCO3 250223Z 25007G15KT 19/15 A2978 RMK A01 T01870150  RH  079%=      5-min Rain = 0.02
KCO3 250224Z 23005G11KT 18/15 A2978 RMK A01 T01830152  RH  082%=      5-min Rain = 0.02
KCO3 250225Z 22007G12KT 18/15 A2978 RMK A01 T01800152  RH  084%=      5-min Rain = 0.02
KCO3 250226Z 20011G17KT 18/15 A2979 RMK A01 T01760152  RH  086%=      5-min Rain = 0.01
KCO3 250227Z 20009KT 17/15 A2979 RMK A01 T01730152  RH  088%=      5-min Rain = 0.01
KCO3 250228Z 21010G15KT 17/15 A298 RMK A01 T01700152  RH  089%=      5-min Rain = 0.01
KCO3 250229Z 21010G16KT 17/15 A298 RMK A01 T01680153  RH  091%=      5-min Rain = 0.01
KCO3 250230Z 22014G22KT 17/15 A298 RMK A01 T01670153  RH  091%=      5-min Rain = 0.01
KCO3 250231Z 21013G22KT 16/15 A298 RMK A01 T01640152  RH  093%=      5-min Rain = 0.03
KCO3 250232Z 21011G16KT 16/15 A298 RMK A01 T01620152  RH  094%=      5-min Rain = 0.01
KCO3 250233Z 20011KT 16/15 A298 RMK A01 T01610152  RH  094%=      5-min Rain = 0.02
KCO3 250234Z 19009G14KT 16/15 A298 RMK A01 T01600152  RH  095%=      5-min Rain = 0.02
KCO3 250235Z 19010KT 16/15 A2981 RMK A01 T01590152  RH  095%=      5-min Rain = 0.03
KCO3 250236Z 19009KT 16/15 A2981 RMK A01 T01580151  RH  096%=      5-min Rain = 0.02
KCO3 250237Z 18007KT 16/15 A2981 RMK A01 T01580152  RH  096%=      5-min Rain = 0.02
KCO3 250238Z 17003KT 16/15 A2981 RMK A01 T01580152  RH  096%=      5-min Rain = 0.02
KCO3 250239Z 19005KT 16/15 A2981 RMK A01 T01580152  RH  097%=      5-min Rain = 0.01
KCO3 250240Z 20007KT 16/15 A2981 RMK A01 T01570152  RH  097%=      5-min Rain = 0.03
KCO3 250241Z 22005G10KT 16/15 A2981 RMK A01 T01570151  RH  097%=      5-min Rain = 0.01
KCO3 250242Z 21006KT 16/15 A2981 RMK A01 T01560151  RH  097%=      5-min Rain = 0.01
KCO3 250243Z 23004KT 16/15 A2982 RMK A01 T01560151  RH  096%=      5-min Rain = 0.02
KCO3 250244Z 23004KT 16/15 A2982 RMK A01 T01560151  RH  097%=      5-min Rain = 0.01
KCO3 250245Z 22008KT 16/15 A2982 RMK A01 T01560151  RH  097%=      5-min Rain = 0.02
KCO3 250246Z 21008KT 16/15 A2982 RMK A01 T01560151  RH  097%=      5-min Rain = 0.02
KCO3 250247Z 22008KT 16/15 A2982 RMK A01 T01560151  RH  097%=      5-min Rain = 0.02
KCO3 250248Z 22007KT 16/15 A2983 RMK A01 T01560151  RH  097%=      5-min Rain = 0.01
KCO3 250249Z 22006KT 16/15 A2983 RMK A01 T01560151  RH  097%=      5-min Rain = 0.02
KCO3 250250Z 22004KT 16/15 A2983 RMK A01 T01560151  RH  097%=      5-min Rain = 0.01
KCO3 250251Z 23005KT 16/15 A2984 RMK A01 T01560151  RH  097%=      5-min Rain = 0.01
KCO3 250252Z 22004KT 16/15 A2984 RMK A01 T01560151  RH  097%=      5-min Rain = 0.01
KCO3 250253Z 22004KT 16/15 A2984 RMK A01 T01570151  RH  097%=      5-min Rain = 0
KCO3 250254Z 23003KT 16/15 A2984 RMK A01 T01570151  RH  096%=      5-min Rain = 0.01
KCO3 250255Z 22002KT 16/15 A2984 RMK A01 T01570152  RH  096%=      5-min Rain = 0
KCO3 250256Z 22005KT 16/15 A2984 RMK A01 T01570152  RH  096%=      5-min Rain = 0.01
KCO3 250257Z 22005G10KT 16/15 A2984 RMK A01 T01570152  RH  096%=      5-min Rain = 0
KCO3 250258Z 23003KT 16/15 A2984 RMK A01 T01580151  RH  096%=      5-min Rain = 0.01
KCO3 250259Z 23003KT 16/15 A2984 RMK A01 T01580152  RH  096%=      5-min Rain = 0.01
KCO3 250300Z 23003KT 16/15 A2984 RMK A01 T01580152  RH  096%=      5-min Rain = 0
KCO3 250301Z 22004KT 16/15 A2984 RMK A01 T01580152  RH  096%=      5-min Rain = 0.01
KCO3 250302Z 22004KT 16/15 A2983 RMK A01 T01580151  RH  096%=      5-min Rain = 0.01
KCO3 250303Z 22004KT 16/15 A2983 RMK A01 T01580152  RH  096%=      5-min Rain = 0
KCO3 250304Z 21004KT 16/15 A2983 RMK A01 T01580151  RH  096%=      5-min Rain = 0.01
KCO3 250305Z 21003G8KT 16/15 A2983 RMK A01 T01580152  RH  096%=      5-min Rain = 0
KCO3 250306Z 23004KT 16/15 A2983 RMK A01 T01580152  RH  096%=      5-min Rain = 0
KCO3 250307Z 20005KT 16/15 A2984 RMK A01 T01580152  RH  096%=      5-min Rain = 0.01
KCO3 250308Z 20004KT 16/15 A2984 RMK A01 T01580152  RH  096%=      5-min Rain = 0
KCO3 250309Z 21004KT 16/15 A2984 RMK A01 T01580152  RH  096%=      5-min Rain = 0
KCO3 250310Z 20004KT 16/15 A2984 RMK A01 T01580153  RH  097%=      5-min Rain = 0
KCO3 250311Z 20003KT 16/15 A2984 RMK A01 T01580153  RH  097%=      5-min Rain = 0
KCO3 250312Z 23002KT 16/15 A2984 RMK A01 T01580153  RH  096%=      5-min Rain = 0.01
KCO3 250313Z 22002KT 16/15 A2984 RMK A01 T01580153  RH  097%=      5-min Rain = 0
KCO3 250314Z 18002KT 16/15 A2984 RMK A01 T01580153  RH  097%=      5-min Rain = 0
KCO3 250315Z 19002KT 16/15 A2984 RMK A01 T01580153  RH  097%=      5-min Rain = 0
KCO3 250316Z 18004KT 16/15 A2985 RMK A01 T01580153  RH  097%=      5-min Rain = 0
KCO3 250317Z 17004KT 16/15 A2985 RMK A01 T01580153  RH  097%=      5-min Rain = 0
KCO3 250318Z 16004KT 16/15 A2985 RMK A01 T01580153  RH  097%=      5-min Rain = 0.01
KCO3 250319Z 17004KT 16/15 A2985 RMK A01 T01580154  RH  097%=      5-min Rain = 0
KCO3 250320Z 16002KT 16/15 A2985 RMK A01 T01580154  RH  097%=      5-min Rain = 0
KCO3 250321Z 15003KT 16/15 A2986 RMK A01 T01590154  RH  097%=      5-min Rain = 0
KCO3 250322Z 15002KT 16/16 A2986 RMK A01 T01590155  RH  098%=      5-min Rain = 0.01
KCO3 250323Z 14001KT 16/16 A2986 RMK A01 T01590155  RH  098%=      5-min Rain = 0
KCO3 250324Z 15002KT 16/16 A2986 RMK A01 T01590155  RH  098%=      5-min Rain = 0
KCO3 250325Z 10002KT 16/15 A2985 RMK A01 T01590154  RH  097%=      5-min Rain = 0
KCO3 250326Z 10002KT 16/15 A2985 RMK A01 T01590154  RH  097%=      5-min Rain = 0.01
KCO3 250327Z 08003KT 16/16 A2985 RMK A01 T01590155  RH  097%=      5-min Rain = 0
KCO3 250328Z 07003KT 16/16 A2985 RMK A01 T01600156  RH  097%=      5-min Rain = 0
KCO3 250329Z 06002KT 16/16 A2985 RMK A01 T01600155  RH  097%=      5-min Rain = 0
KCO3 250330Z 07002KT 16/16 A2985 RMK A01 T01600156  RH  097%=      5-min Rain = 0
KCO3 250331Z 04002KT 16/16 A2985 RMK A01 T01610155  RH  097%=      5-min Rain = 0
KCO3 250332Z 01002KT 16/16 A2985 RMK A01 T01610155  RH  096%=      5-min Rain = 0
KCO3 250333Z 00002KT 16/16 A2985 RMK A01 T01610155  RH  097%=      5-min Rain = 0
KCO3 250334Z 34001KT 16/16 A2985 RMK A01 T01610155  RH  096%=      5-min Rain = 0.01
KCO3 250335Z 30001KT 16/16 A2985 RMK A01 T01610155  RH  096%=      5-min Rain = 0
KCO3 250336Z 26001KT 16/16 A2985 RMK A01 T01610155  RH  096%=      5-min Rain = 0
KCO3 250337Z 25001KT 16/16 A2984 RMK A01 T01610155  RH  096%=      5-min Rain = 0
KCO3 250338Z 25002KT 16/16 A2984 RMK A01 T01610156  RH  097%=      5-min Rain = 0
KCO3 250339Z 26003KT 16/16 A2984 RMK A01 T01610156  RH  097%=      5-min Rain = 0
KCO3 250340Z 27002KT 16/16 A2984 RMK A01 T01610156  RH  097%=      5-min Rain = 0
KCO3 250341Z 27003KT 16/16 A2984 RMK A01 T01600156  RH  097%=      5-min Rain = 0.01
KCO3 250342Z 28003KT 16/16 A2983 RMK A01 T01600156  RH  097%=      5-min Rain = 0
KCO3 250343Z 28003KT 16/16 A2983 RMK A01 T01600156  RH  097%=      5-min Rain = 0
KCO3 250344Z 29003KT 16/16 A2983 RMK A01 T01600156  RH  098%=      5-min Rain = 0
KCO3 250345Z 29003KT 16/16 A2983 RMK A01 T01600156  RH  098%=      5-min Rain = 0
KCO3 250346Z 29003KT 16/16 A2984 RMK A01 T01600157  RH  098%=      5-min Rain = 0
KCO3 250347Z 29003KT 16/16 A2984 RMK A01 T01600157  RH  098%=      5-min Rain = 0.01
KCO3 250348Z 30002KT 16/16 A2984 RMK A01 T01610158  RH  098%=      5-min Rain = 0
KCO3 250349Z 31003KT 16/16 A2984 RMK A01 T01610158  RH  098%=      5-min Rain = 0
KCO3 250350Z 32003KT 16/16 A2984 RMK A01 T01610158  RH  098%=      5-min Rain = 0
KCO3 250351Z 33003KT 16/16 A2984 RMK A01 T01610159  RH  098%=      5-min Rain = 0.01
KCO3 250352Z 34003KT 16/16 A2984 RMK A01 T01620159  RH  098%=      5-min Rain = 0
KCO3 250353Z 35003KT 16/16 A2985 RMK A01 T01620159  RH  098%=      5-min Rain = 0
KCO3 250354Z 35003KT 16/16 A2985 RMK A01 T01620159  RH  098%=      5-min Rain = 0
KCO3 250355Z 00003KT 16/16 A2985 RMK A01 T01620159  RH  098%=      5-min Rain = 0
KCO3 250356Z 35002KT 16/16 A2985 RMK A01 T01620159  RH  098%=      5-min Rain = 0.01
KCO3 250357Z 35003KT 16/16 A2985 RMK A01 T01620159  RH  098%=      5-min Rain = 0
KCO3 250358Z 35003KT 16/16 A2985 RMK A01 T01620159  RH  098%=      5-min Rain = 0
KCO3 250359Z 34004KT 16/16 A2985 RMK A01 T01620159  RH  098%=      5-min Rain = 0
KCO3 250400Z 34004KT 16/16 A2985 RMK A01 T01620159  RH  098%=      5-min Rain = 0
KCO3 250401Z 33003KT 16/16 A2985 RMK A01 T01620159  RH  098%=      5-min Rain = 0.01
KCO3 250402Z 32003KT 16/16 A2986 RMK A01 T01620159  RH  098%=      5-min Rain = 0
KCO3 250403Z 31004KT 16/16 A2986 RMK A01 T01620159  RH  098%=      5-min Rain = 0
KCO3 250404Z 31004KT 16/16 A2986 RMK A01 T01620159  RH  098%=      5-min Rain = 0
KCO3 250405Z 31005KT 16/16 A2986 RMK A01 T01620159  RH  098%=      5-min Rain = 0
KCO3 250406Z 31005KT 16/16 A2986 RMK A01 T01620159  RH  098%=      5-min Rain = 0.01
KCO3 250407Z 31005KT 16/16 A2986 RMK A01 T01620158  RH  097%=      5-min Rain = 0
KCO3 250408Z 31005KT 16/16 A2986 RMK A01 T01620158  RH  097%=      5-min Rain = 0
KCO3 250409Z 32005KT 16/16 A2986 RMK A01 T01630159  RH  097%=      5-min Rain = 0
KCO3 250410Z 33005KT 16/16 A2987 RMK A01 T01630159  RH  097%=      5-min Rain = 0.01
KCO3 250411Z 34006KT 16/16 A2987 RMK A01 T01630159  RH  097%=      5-min Rain = 0
KCO3 250412Z 34007KT 16/16 A2987 RMK A01 T01630159  RH  097%=      5-min Rain = 0
KCO3 250413Z 35006KT 16/16 A2988 RMK A01 T01630159  RH  097%=      5-min Rain = 0.01
KCO3 250414Z 35006KT 16/16 A2988 RMK A01 T01630159  RH  097%=      5-min Rain = 0
KCO3 250415Z 36007KT 16/16 A2988 RMK A01 T01630159  RH  097%=      5-min Rain = 0
KCO3 250416Z 00006KT 16/16 A2988 RMK A01 T01630160  RH  098%=      5-min Rain = 0.01
KCO3 250417Z 01009KT 16/16 A2989 RMK A01 T01630160  RH  098%=      5-min Rain = 0
KCO3 250418Z 01009KT 16/16 A2989 RMK A01 T01630159  RH  098%=      5-min Rain = 0
KCO3 250419Z 02009KT 16/16 A2989 RMK A01 T01630159  RH  097%=      5-min Rain = 0.01
KCO3 250420Z 02008KT 16/16 A2989 RMK A01 T01630159  RH  097%=      5-min Rain = 0
KCO3 250421Z 02010G16KT 16/16 A2989 RMK A01 T01640160  RH  097%=      5-min Rain = 0.01
KCO3 250422Z 02011KT 16/16 A2989 RMK A01 T01640160  RH  097%=      5-min Rain = 0
KCO3 250423Z 02009G15KT 16/16 A2989 RMK A01 T01640160  RH  097%=      5-min Rain = 0
KCO3 250424Z 02010KT 16/16 A2989 RMK A01 T01640160  RH  097%=      5-min Rain = 0.01
KCO3 250425Z 02010G15KT 16/16 A2989 RMK A01 T01640160  RH  098%=      5-min Rain = 0
KCO3 250426Z 02008KT 16/16 A2989 RMK A01 T01640160  RH  098%=      5-min Rain = 0.01
KCO3 250427Z 02009G14KT 16/16 A2989 RMK A01 T01640160  RH  098%=      5-min Rain = 0.01
KCO3 250428Z 02011KT 16/16 A2989 RMK A01 T01640160  RH  098%=      5-min Rain = 0
KCO3 250429Z 02010KT 16/16 A2989 RMK A01 T01640160  RH  098%=      5-min Rain = 0.01
KCO3 250430Z 02010G16KT 16/16 A2989 RMK A01 T01640160  RH  097%=      5-min Rain = 0
KCO3 250431Z 02008KT 16/16 A2989 RMK A01 T01640160  RH  097%=      5-min Rain = 0.01
KCO3 250432Z 02009KT 16/16 A2989 RMK A01 T01640160  RH  097%=      5-min Rain = 0
KCO3 250433Z 02010KT 16/16 A2989 RMK A01 T01640160  RH  097%=      5-min Rain = 0
KCO3 250434Z 02009KT 16/16 A299 RMK A01 T01640159  RH  097%=      5-min Rain = 0.01
KCO3 250435Z 01008KT 16/16 A299 RMK A01 T01640160  RH  097%=      5-min Rain = 0.01
KCO3 250436Z 01009KT 16/16 A299 RMK A01 T01640160  RH  097%=      5-min Rain = 0
KCO3 250437Z 02011KT 16/16 A299 RMK A01 T01640160  RH  097%=      5-min Rain = 0.01
KCO3 250438Z 02009KT 16/16 A299 RMK A01 T01640160  RH  097%=      5-min Rain = 0
KCO3 250439Z 02009KT 16/16 A299 RMK A01 T01640160  RH  097%=      5-min Rain = 0.01
KCO3 250440Z 02012KT 16/16 A299 RMK A01 T01640160  RH  097%=      5-min Rain = 0
KCO3 250441Z 02010KT 16/16 A299 RMK A01 T01640160  RH  097%=      5-min Rain = 0.01
KCO3 250442Z 02009G14KT 16/16 A299 RMK A01 T01640160  RH  097%=      5-min Rain = 0
KCO3 250443Z 01010G15KT 16/16 A299 RMK A01 T01640160  RH  097%=      5-min Rain = 0.01
KCO3 250444Z 02009KT 16/16 A299 RMK A01 T01640160  RH  097%=      5-min Rain = 0
KCO3 250445Z 02009KT 16/16 A299 RMK A01 T01640160  RH  097%=      5-min Rain = 0
KCO3 250446Z 02011KT 16/16 A299 RMK A01 T01640160  RH  097%=      5-min Rain = 0
KCO3 250447Z 02010KT 16/16 A299 RMK A01 T01640160  RH  097%=      5-min Rain = 0.01
KCO3 250448Z 02009KT 16/16 A2989 RMK A01 T01640160  RH  097%=      5-min Rain = 0
KCO3 250449Z 01009KT 16/16 A2989 RMK A01 T01640160  RH  097%=      5-min Rain = 0
KCO3 250450Z 01007KT 16/16 A2989 RMK A01 T01640160  RH  097%=      5-min Rain = 0
KCO3 250451Z 01009KT 16/16 A2989 RMK A01 T01640160  RH  098%=      5-min Rain = 0.01
KCO3 250452Z 01006KT 16/16 A2989 RMK A01 T01640160  RH  098%=      5-min Rain = 0
KCO3 250453Z 01009KT 16/16 A2989 RMK A01 T01640160  RH  098%=      5-min Rain = 0
KCO3 250454Z 01008KT 16/16 A2989 RMK A01 T01630159  RH  097%=      5-min Rain = 0
KCO3 250455Z 01008KT 16/16 A2989 RMK A01 T01630159  RH  097%=      5-min Rain = 0
KCO3 250456Z 01008KT 16/16 A2989 RMK A01 T01630159  RH  098%=      5-min Rain = 0.01
KCO3 250457Z 02011KT 16/16 A2989 RMK A01 T01630159  RH  098%=      5-min Rain = 0
KCO3 250458Z 02009KT 16/16 A2989 RMK A01 T01630160  RH  098%=      5-min Rain = 0
KCO3 250459Z 02009KT 16/16 A2989 RMK A01 T01630160  RH  098%=      5-min Rain = 0.01

Page generated in 0.2701 seconds.